M I D A S
Marine Information and Data Acquisition System
Tripno 1919 of the Zeeleeuw from 2010-07-13 06:19:46 to 2010-07-13 16:03:46
Back to CruiseResearch ActivitiesStationsMapUnderway DataData graphs

EquipmentUnitsComment
TimeDGPSUTC
LatitudeDGPSDM.mWGS84
LongitudeDGPSDM.mWGS84
TemperatureSBE03/SBE38deg celciusITS90
ConductivitySBE21S/mITS90
SalinitySBE21 Practical Salinity Units
ChlorophylAChelsea fluorimeterg/lCalibrated in Aceton
Missing or incorrect values are displayed as -999
Sea surface data collected by the RV Zeeleeuw from 2010-07-13 04:44:14 to 2010-07-13 16:18:45
                                                                                    Next 1000 lines
Time Latitude Longitude Temperature Conductivity Salinity ChlorophylA
2010-07-13 04:44:24 51°13.662 2°55.959 22.7369 4.80076 31.925871 -1.035392
2010-07-13 04:44:29 51°13.662 2°55.959 22.7365 4.800654 31.925562 -1.000568
2010-07-13 04:44:34 51°13.662 2°55.959 22.7363 4.800654 31.926039 -1.000568
2010-07-13 04:44:39 51°13.662 2°55.959 22.7359 4.800654 31.926039 -1.035392
2010-07-13 04:44:44 51°13.662 2°55.959 22.7364 4.800654 31.926993 -1.035392
2010-07-13 04:44:49 51°13.662 2°55.959 22.7363 4.800654 31.926993 -1.035392
2010-07-13 04:44:54 51°13.662 2°55.959 22.736 4.800549 31.926206 -1.000568
2010-07-13 04:44:59 51°13.662 2°55.959 22.7368 4.800443 31.925897 -1.035392
2010-07-13 04:45:04 51°13.662 2°55.959 22.7363 4.800443 31.925897 -1.035392
2010-07-13 04:45:09 51°13.662 2°55.959 22.7358 4.800338 31.925588 -1.035392
2010-07-13 04:45:14 51°13.662 2°55.959 22.7364 4.800338 31.925588 -1.000568
2010-07-13 04:45:19 51°13.662 2°55.959 22.7365 4.800338 31.925588 -1.000568
2010-07-13 04:45:24 51°13.662 2°55.959 22.7357 4.800338 31.926542 -1.000568
2010-07-13 04:45:29 51°13.662 2°55.959 22.7358 4.800338 31.926542 -1.035392
2010-07-13 04:45:35 51°13.662 2°55.959 22.736 4.800338 31.926542 -1.035392
2010-07-13 04:45:39 51°13.662 2°55.959 22.7357 4.800232 31.926233 -1.035392
2010-07-13 04:45:44 51°13.662 2°55.959 22.7356 4.800127 31.925924 -1.000568
2010-07-13 04:45:49 51°13.661 2°55.959 22.7355 4.800127 31.925924 -1.000568
2010-07-13 04:45:54 51°13.661 2°55.959 22.7353 4.800021 31.925615 -1.035392
2010-07-13 04:45:59 51°13.661 2°55.959 22.7351 4.800021 31.925615 -1.000568
2010-07-13 04:46:04 51°13.661 2°55.959 22.7356 4.800127 31.926878 -1.035392
2010-07-13 04:46:09 51°13.661 2°55.959 22.735 4.799915 31.925305 -1.000568
2010-07-13 04:46:14 51°13.661 2°55.959 22.735 4.799915 31.925305 -1.000568
2010-07-13 04:46:19 51°13.661 2°55.959 22.735 4.799915 31.925305 -1.000568
2010-07-13 04:46:24 51°13.661 2°55.959 22.7353 4.799915 31.925783 -1.070216
2010-07-13 04:46:29 51°13.661 2°55.959 22.7348 4.799915 31.92626 -1.000568
2010-07-13 04:46:34 51°13.661 2°55.959 22.7348 4.799915 31.926737 -1.035392
2010-07-13 04:46:39 51°13.661 2°55.959 22.7345 4.799704 31.925164 -1.000568
2010-07-13 04:46:44 51°13.661 2°55.959 22.7344 4.799704 31.925164 -1.000568
2010-07-13 04:46:49 51°13.661 2°55.959 22.7344 4.79981 31.926428 -1.000568
2010-07-13 04:46:54 51°13.661 2°55.959 22.7347 4.799704 31.926119 -1.035392
2010-07-13 04:46:59 51°13.661 2°55.959 22.7348 4.799704 31.926596 -1.000568
2010-07-13 04:47:04 51°13.661 2°55.96 22.7343 4.799599 31.925809 -1.035392
2010-07-13 04:47:09 51°13.661 2°55.96 22.7341 4.799599 31.926287 -1.000568
2010-07-13 04:47:14 51°13.661 2°55.96 22.7345 4.799599 31.926287 -1.000568
2010-07-13 04:47:19 51°13.661 2°55.96 22.7339 4.799599 31.926287 -1.000568
2010-07-13 04:47:24 51°13.661 2°55.96 22.7343 4.799493 31.925977 -1.000568
2010-07-13 04:47:29 51°13.661 2°55.96 22.7335 4.799388 31.925668 -1.035392
2010-07-13 04:47:34 51°13.661 2°55.96 22.7336 4.799493 31.926455 -1.035392
2010-07-13 04:47:39 51°13.661 2°55.96 22.7333 4.799282 31.925359 -1.000568
2010-07-13 04:47:44 51°13.661 2°55.96 22.7332 4.799282 31.925359 -1.000568
2010-07-13 04:47:49 51°13.661 2°55.96 22.733 4.799282 31.925359 -1.000568
2010-07-13 04:47:54 51°13.661 2°55.96 22.733 4.799282 31.925836 -1.000568
2010-07-13 04:47:59 51°13.661 2°55.961 22.7332 4.799282 31.926313 -1.000568
2010-07-13 04:48:04 51°13.661 2°55.961 22.7325 4.799177 31.926004 -1.035392
2010-07-13 04:48:09 51°13.661 2°55.961 22.7329 4.799282 31.926791 -1.035392
2010-07-13 04:48:14 51°13.661 2°55.961 22.7328 4.799282 31.926791 -1.035392
2010-07-13 04:48:19 51°13.661 2°55.961 22.7328 4.799071 31.925695 -1.000568
2010-07-13 04:48:24 51°13.661 2°55.961 22.7329 4.799071 31.926172 -1.000568
2010-07-13 04:48:29 51°13.661 2°55.961 22.7324 4.799071 31.926172 -1.035392
2010-07-13 04:48:34 51°13.661 2°55.961 22.7328 4.798965 31.925863 -1.035392
2010-07-13 04:48:39 51°13.661 2°55.961 22.7326 4.798965 31.92634 -1.035392
2010-07-13 04:48:44 51°13.661 2°55.961 22.7322 4.79886 31.925554 -1.035392
2010-07-13 04:48:49 51°13.661 2°55.961 22.7326 4.79886 31.925554 -1.035392
2010-07-13 04:48:54 51°13.661 2°55.961 22.732 4.79886 31.926031 -1.035392
2010-07-13 04:48:59 51°13.661 2°55.961 22.7324 4.798754 31.925722 -1.035392
2010-07-13 04:49:04 51°13.661 2°55.961 22.7321 4.798754 31.926199 -1.000568
2010-07-13 04:49:09 51°13.661 2°55.961 22.7322 4.798649 31.924935 -1.000568
2010-07-13 04:49:14 51°13.661 2°55.961 22.7321 4.798649 31.925413 -1.035392
2010-07-13 04:49:19 51°13.661 2°55.96 22.7321 4.798649 31.925413 -1.035392
2010-07-13 04:49:24 51°13.661 2°55.961 22.7321 4.798543 31.925103 -0.965744
2010-07-13 04:49:29 51°13.661 2°55.961 22.732 4.798543 31.925581 -1.035392
2010-07-13 04:49:34 51°13.661 2°55.961 22.7317 4.798543 31.926058 -1.035392
2010-07-13 04:49:39 51°13.66 2°55.961 22.7319 4.798649 31.926845 -1.000568
2010-07-13 04:49:44 51°13.66 2°55.961 22.7326 4.798649 31.926845 -1.000568
2010-07-13 04:49:49 51°13.66 2°55.961 22.7321 4.798438 31.925749 -1.035392
2010-07-13 04:49:54 51°13.66 2°55.961 22.732 4.798332 31.924962 -1.000568
2010-07-13 04:49:59 51°13.66 2°55.961 22.7321 4.798438 31.926226 -1.035392
2010-07-13 04:50:04 51°13.66 2°55.961 22.7323 4.798332 31.925917 -1.000568
2010-07-13 04:50:09 51°13.659 2°55.961 22.7319 4.798332 31.926394 -1.035392
2010-07-13 04:50:14 51°13.659 2°55.961 22.7322 4.798227 31.926085 -1.000568
2010-07-13 04:50:19 51°13.659 2°55.961 22.7322 4.798227 31.926085 -1.000568
2010-07-13 04:50:24 51°13.659 2°55.961 22.7322 4.798227 31.925608 -1.000568
2010-07-13 04:50:29 51°13.659 2°55.96 22.7323 4.798121 31.925776 -1.035392
2010-07-13 04:50:34 51°13.659 2°55.961 22.7325 4.798121 31.925776 -1.035392
2010-07-13 04:50:39 51°13.659 2°55.96 22.7322 4.798121 31.926253 -1.035392
2010-07-13 04:50:44 51°13.659 2°55.96 22.7323 4.798015 31.925467 -1.000568
2010-07-13 04:50:49 51°13.659 2°55.96 22.7322 4.798015 31.925467 -1.000568
2010-07-13 04:50:54 51°13.659 2°55.96 22.7324 4.798015 31.925944 -1.035392
2010-07-13 04:50:59 51°13.659 2°55.96 22.7323 4.79791 31.925635 -1.035392
2010-07-13 04:51:04 51°13.659 2°55.96 22.7324 4.79791 31.926112 -1.070216
2010-07-13 04:51:09 51°13.659 2°55.96 22.7327 4.79791 31.92659 -1.035392
2010-07-13 04:51:14 51°13.659 2°55.96 22.7323 4.797804 31.925326 -1.035392
2010-07-13 04:51:19 51°13.66 2°55.96 22.7322 4.797804 31.925326 -1.035392
2010-07-13 04:51:24 51°13.66 2°55.96 22.7318 4.797804 31.925803 -1.035392
2010-07-13 04:51:29 51°13.66 2°55.959 22.7317 4.797804 31.92628 -1.035392
2010-07-13 04:51:34 51°13.66 2°55.959 22.7321 4.797699 31.925971 -1.035392
2010-07-13 04:51:39 51°13.66 2°55.959 22.7323 4.797699 31.925971 -1.035392
2010-07-13 04:51:44 51°13.66 2°55.959 22.7319 4.797699 31.925971 -1.035392
2010-07-13 04:51:49 51°13.66 2°55.959 22.7321 4.797699 31.926449 -1.035392
2010-07-13 04:51:54 51°13.66 2°55.959 22.7319 4.797593 31.926139 -1.035392
2010-07-13 04:51:59 51°13.661 2°55.959 22.7319 4.797488 31.925353 -1.035392
2010-07-13 04:52:04 51°13.661 2°55.959 22.7321 4.797488 31.925353 -1.000568
2010-07-13 04:52:09 51°13.661 2°55.959 22.7317 4.797382 31.925521 -1.000568
2010-07-13 04:52:14 51°13.661 2°55.959 22.7318 4.797382 31.925521 -1.000568
2010-07-13 04:52:19 51°13.66 2°55.959 22.7313 4.797382 31.925521 -1.000568
2010-07-13 04:52:24 51°13.66 2°55.959 22.7313 4.797382 31.925998 -1.000568
2010-07-13 04:52:29 51°13.66 2°55.959 22.7313 4.797382 31.925998 -1.000568
2010-07-13 04:52:34 51°13.661 2°55.959 22.7315 4.797276 31.925689 -1.035392
2010-07-13 04:52:39 51°13.66 2°55.959 22.7314 4.797171 31.925857 -0.965744
2010-07-13 04:52:44 51°13.66 2°55.959 22.731 4.797171 31.925857 -0.965744
2010-07-13 04:52:49 51°13.66 2°55.959 22.731 4.797277 31.926644 -1.000568
2010-07-13 04:52:54 51°13.66 2°55.959 22.731 4.797171 31.925857 -1.035392
2010-07-13 04:52:59 51°13.66 2°55.959 22.7304 4.797171 31.926335 -1.000568
2010-07-13 04:53:04 51°13.66 2°55.959 22.7301 4.797065 31.925548 -1.035392
2010-07-13 04:53:09 51°13.659 2°55.96 22.7302 4.797065 31.926026 -1.000568
2010-07-13 04:53:14 51°13.659 2°55.96 22.7303 4.79696 31.925239 -1.035392
2010-07-13 04:53:19 51°13.659 2°55.96 22.7297 4.79696 31.925239 -1.035392
2010-07-13 04:53:24 51°13.659 2°55.96 22.7299 4.79696 31.926194 -1.035392
2010-07-13 04:53:29 51°13.659 2°55.96 22.7297 4.796854 31.92493 -1.000568
2010-07-13 04:53:34 51°13.658 2°55.96 22.7299 4.796854 31.925885 -1.035392
2010-07-13 04:53:39 51°13.658 2°55.96 22.7295 4.796749 31.925098 -1.000568
2010-07-13 04:53:44 51°13.658 2°55.961 22.7296 4.796749 31.925575 -1.000568
2010-07-13 04:53:49 51°13.659 2°55.96 22.7297 4.796749 31.925575 -1.000568
2010-07-13 04:53:54 51°13.659 2°55.96 22.7294 4.796749 31.926053 -1.035392
2010-07-13 04:53:59 51°13.659 2°55.96 22.7293 4.796643 31.925266 -1.000568
2010-07-13 04:54:04 51°13.66 2°55.96 22.7291 4.796643 31.925744 -1.000568
2010-07-13 04:54:09 51°13.66 2°55.96 22.7288 4.796538 31.925912 -1.000568
2010-07-13 04:54:14 51°13.661 2°55.96 22.7291 4.796538 31.925912 -1.000568
2010-07-13 04:54:19 51°13.661 2°55.959 22.7287 4.796538 31.925434 -1.035392
2010-07-13 04:54:24 51°13.661 2°55.959 22.7291 4.796538 31.925912 -1.035392
2010-07-13 04:54:29 51°13.661 2°55.959 22.7285 4.796432 31.925603 -1.000568
2010-07-13 04:54:34 51°13.661 2°55.959 22.7286 4.796326 31.924816 -1.035392
2010-07-13 04:54:39 51°13.661 2°55.959 22.728 4.796432 31.92608 -1.035392
2010-07-13 04:54:44 51°13.661 2°55.959 22.7282 4.796432 31.92608 -1.035392
2010-07-13 04:54:49 51°13.66 2°55.959 22.7286 4.796326 31.925771 -1.035392
2010-07-13 04:54:54 51°13.66 2°55.959 22.7281 4.796221 31.924984 -1.035392
2010-07-13 04:54:59 51°13.661 2°55.959 22.7281 4.796221 31.925462 -1.000568
2010-07-13 04:55:04 51°13.661 2°55.959 22.7278 4.796326 31.926249 -1.000568
2010-07-13 04:55:09 51°13.661 2°55.958 22.7278 4.796115 31.925153 -1.000568
2010-07-13 04:55:14 51°13.662 2°55.958 22.7279 4.796115 31.926108 -1.035392
2010-07-13 04:55:19 51°13.662 2°55.958 22.7278 4.796115 31.926108 -1.035392
2010-07-13 04:55:24 51°13.661 2°55.958 22.7274 4.796115 31.926108 -1.000568
2010-07-13 04:55:29 51°13.662 2°55.958 22.7274 4.79601 31.925799 -1.000568
2010-07-13 04:55:34 51°13.662 2°55.958 22.7276 4.79601 31.925799 -1.000568
2010-07-13 04:55:39 51°13.662 2°55.957 22.7275 4.795904 31.925012 -1.035392
2010-07-13 04:55:44 51°13.662 2°55.957 22.7271 4.795799 31.92518 -1.000568
2010-07-13 04:55:49 51°13.662 2°55.957 22.7266 4.795799 31.92518 -1.000568
2010-07-13 04:55:54 51°13.662 2°55.957 22.7269 4.795904 31.925967 -1.000568
2010-07-13 04:55:59 51°13.662 2°55.957 22.727 4.795799 31.925658 -1.000568
2010-07-13 04:56:04 51°13.662 2°55.957 22.7274 4.795799 31.925658 -1.035392
2010-07-13 04:56:09 51°13.662 2°55.957 22.7271 4.795799 31.926135 -1.035392
2010-07-13 04:56:14 51°13.662 2°55.957 22.7267 4.795693 31.925348 -1.000568
2010-07-13 04:56:19 51°13.661 2°55.957 22.727 4.795693 31.925348 -1.000568
2010-07-13 04:56:24 51°13.66 2°55.957 22.7269 4.795693 31.925826 -1.000568
2010-07-13 04:56:29 51°13.659 2°55.958 22.7272 4.795693 31.926304 -1.035392
2010-07-13 04:56:34 51°13.659 2°55.958 22.727 4.795588 31.925517 -1.035392
2010-07-13 04:56:39 51°13.659 2°55.959 22.7266 4.795482 31.925685 -1.035392
2010-07-13 04:56:44 51°13.659 2°55.959 22.7267 4.795482 31.926163 -1.070216
2010-07-13 04:56:49 51°13.658 2°55.959 22.7268 4.795482 31.926163 -1.070216
2010-07-13 04:56:54 51°13.658 2°55.959 22.7272 4.795482 31.926641 -1.000568
2010-07-13 04:56:59 51°13.658 2°55.959 22.727 4.795376 31.925376 -1.000568
2010-07-13 04:57:04 51°13.658 2°55.959 22.7269 4.795482 31.926641 -1.035392
2010-07-13 04:57:09 51°13.658 2°55.959 22.7268 4.795376 31.925854 -1.000568
2010-07-13 04:57:14 51°13.658 2°55.959 22.7267 4.795376 31.925854 -1.000568
2010-07-13 04:57:19 51°13.658 2°55.959 22.727 4.795271 31.926022 -1.035392
2010-07-13 04:57:24 51°13.658 2°55.959 22.7269 4.795165 31.925235 -1.000568
2010-07-13 04:57:29 51°13.658 2°55.959 22.7271 4.79506 31.924926 -1.000568
2010-07-13 04:57:34 51°13.658 2°55.959 22.7274 4.795165 31.926191 -1.035392
2010-07-13 04:57:39 51°13.658 2°55.959 22.7275 4.795165 31.926191 -1.035392
2010-07-13 04:57:44 51°13.658 2°55.959 22.7272 4.79506 31.925881 -1.035392
2010-07-13 04:57:49 51°13.658 2°55.959 22.7265 4.79506 31.925881 -1.035392
2010-07-13 04:57:54 51°13.658 2°55.959 22.7266 4.79506 31.926359 -1.000568
2010-07-13 04:57:59 51°13.658 2°55.959 22.7269 4.794954 31.925572 -1.035392
2010-07-13 04:58:04 51°13.658 2°55.959 22.7271 4.794954 31.925572 -0.965744
2010-07-13 04:58:09 51°13.658 2°55.959 22.7266 4.794849 31.925263 -1.000568
2010-07-13 04:58:14 51°13.658 2°55.959 22.727 4.794849 31.925263 -1.000568
2010-07-13 04:58:19 51°13.659 2°55.959 22.7266 4.794849 31.925263 -1.000568
2010-07-13 04:58:24 51°13.659 2°55.958 22.7272 4.794849 31.926696 -1.035392
2010-07-13 04:58:29 51°13.659 2°55.958 22.7271 4.794743 31.925431 -1.000568
2010-07-13 04:58:34 51°13.659 2°55.959 22.7267 4.794743 31.925909 -1.000568
2010-07-13 04:58:39 51°13.659 2°55.959 22.727 4.794638 31.9256 -1.000568
2010-07-13 04:58:44 51°13.659 2°55.959 22.7269 4.794638 31.9256 -1.035392
2010-07-13 04:58:49 51°13.659 2°55.959 22.727 4.794638 31.9256 -1.035392
2010-07-13 04:58:54 51°13.659 2°55.959 22.7267 4.794638 31.926078 -1.035392
2010-07-13 04:58:59 51°13.659 2°55.958 22.7268 4.794638 31.926556 -1.000568
2010-07-13 04:59:04 51°13.659 2°55.958 22.7273 4.794532 31.925768 -1.035392
2010-07-13 04:59:09 51°13.66 2°55.958 22.7271 4.794426 31.925459 -1.000568
2010-07-13 04:59:14 51°13.66 2°55.957 22.7265 4.794426 31.925459 -1.035392
2010-07-13 04:59:19 51°13.661 2°55.957 22.7268 4.794426 31.925459 -1.035392
2010-07-13 04:59:24 51°13.661 2°55.957 22.7267 4.794321 31.92515 -1.035392
2010-07-13 04:59:29 51°13.661 2°55.956 22.7268 4.794321 31.925628 -1.035392
2010-07-13 04:59:34 51°13.661 2°55.956 22.7266 4.794426 31.926893 -1.035392
2010-07-13 04:59:39 51°13.661 2°55.957 22.7268 4.794215 31.925318 -1.035392
2010-07-13 04:59:44 51°13.66 2°55.957 22.7266 4.794215 31.925318 -1.035392
2010-07-13 04:59:49 51°13.659 2°55.957 22.7261 4.794215 31.925796 -1.000568
2010-07-13 04:59:54 51°13.659 2°55.957 22.7261 4.794004 31.925178 -1.000568
2010-07-13 04:59:59 51°13.659 2°55.958 22.7266 4.794215 31.926274 -1.035392
2010-07-13 05:00:04 51°13.658 2°55.958 22.7258 4.794004 31.925178 -1.035392
2010-07-13 05:00:09 51°13.658 2°55.958 22.7265 4.79411 31.925965 -1.035392
2010-07-13 05:00:14 51°13.659 2°55.958 22.7262 4.794004 31.925656 -1.035392
2010-07-13 05:00:19 51°13.659 2°55.957 22.7263 4.794004 31.925656 -1.035392
2010-07-13 05:00:24 51°13.659 2°55.957 22.7265 4.794004 31.926134 -1.000568
2010-07-13 05:00:29 51°13.659 2°55.957 22.7268 4.793899 31.926302 -1.035392
2010-07-13 05:00:34 51°13.66 2°55.957 22.7266 4.793793 31.925515 -1.035392
2010-07-13 05:00:39 51°13.66 2°55.957 22.7264 4.793899 31.926302 -1.070216
2010-07-13 05:00:44 51°13.66 2°55.956 22.7265 4.793793 31.925515 -1.035392
2010-07-13 05:00:49 51°13.66 2°55.957 22.7269 4.793793 31.925515 -1.035392
2010-07-13 05:00:54 51°13.66 2°55.957 22.7262 4.793793 31.925993 -1.000568
2010-07-13 05:00:59 51°13.66 2°55.957 22.726 4.793793 31.926471 -1.000568
2010-07-13 05:01:04 51°13.66 2°55.957 22.7264 4.793582 31.925374 -1.035392
2010-07-13 05:01:09 51°13.66 2°55.957 22.7264 4.793793 31.926949 -1.000568
2010-07-13 05:01:14 51°13.66 2°55.956 22.7265 4.793688 31.92664 -1.035392
2010-07-13 05:01:19 51°13.66 2°55.956 22.7266 4.793688 31.92664 -1.035392
2010-07-13 05:01:24 51°13.661 2°55.956 22.7261 4.793582 31.92633 -1.000568
2010-07-13 05:01:29 51°13.662 2°55.955 22.7262 4.793476 31.926021 -1.035392
2010-07-13 05:01:34 51°13.662 2°55.955 22.7264 4.793476 31.926021 -1.000568
2010-07-13 05:01:39 51°13.662 2°55.955 22.7263 4.793371 31.925712 -1.000568
2010-07-13 05:01:44 51°13.663 2°55.955 22.7264 4.793265 31.924924 -1.035392
2010-07-13 05:01:49 51°13.663 2°55.954 22.7263 4.793265 31.924924 -1.035392
2010-07-13 05:01:54 51°13.664 2°55.954 22.7264 4.793371 31.92619 -1.000568
2010-07-13 05:01:59 51°13.664 2°55.955 22.7266 4.793265 31.92588 -1.000568
2010-07-13 05:02:04 51°13.664 2°55.955 22.7265 4.793371 31.927146 -1.035392
2010-07-13 05:02:09 51°13.664 2°55.955 22.7263 4.793265 31.926358 -1.000568
2010-07-13 05:02:14 51°13.664 2°55.955 22.726 4.793265 31.926358 -1.000568
2010-07-13 05:02:19 51°13.664 2°55.955 22.726 4.79316 31.925571 -1.000568
2010-07-13 05:02:24 51°13.664 2°55.955 22.7262 4.79316 31.926049 -1.000568
2010-07-13 05:02:29 51°13.665 2°55.955 22.7265 4.79316 31.926527 -1.035392
2010-07-13 05:02:34 51°13.665 2°55.954 22.726 4.793054 31.92574 -1.035392
2010-07-13 05:02:39 51°13.665 2°55.954 22.7256 4.792949 31.92543 -1.035392
2010-07-13 05:02:44 51°13.665 2°55.954 22.7257 4.792949 31.92543 -1.035392
2010-07-13 05:02:49 51°13.665 2°55.954 22.7255 4.793054 31.926696 -1.000568
2010-07-13 05:02:54 51°13.665 2°55.954 22.7256 4.793054 31.926696 -1.000568
2010-07-13 05:02:59 51°13.665 2°55.954 22.7255 4.792949 31.926865 -1.035392
2010-07-13 05:03:04 51°13.665 2°55.954 22.7255 4.792737 31.92529 -1.000568
2010-07-13 05:03:09 51°13.665 2°55.954 22.7248 4.792843 31.926077 -1.000568
2010-07-13 05:03:14 51°13.665 2°55.954 22.7252 4.792843 31.926077 -1.000568
2010-07-13 05:03:19 51°13.665 2°55.954 22.725 4.792737 31.925768 -1.035392
2010-07-13 05:03:24 51°13.665 2°55.954 22.7253 4.792737 31.926246 -1.035392
2010-07-13 05:03:29 51°13.665 2°55.954 22.7252 4.792632 31.925937 -1.000568
2010-07-13 05:03:34 51°13.665 2°55.954 22.7252 4.792632 31.925937 -1.035392
2010-07-13 05:03:39 51°13.665 2°55.954 22.7248 4.792632 31.925937 -1.035392
2010-07-13 05:03:44 51°13.665 2°55.954 22.7243 4.792526 31.926105 -1.000568
2010-07-13 05:03:49 51°13.665 2°55.954 22.7247 4.792526 31.926105 -1.000568
2010-07-13 05:03:54 51°13.665 2°55.954 22.7247 4.792526 31.925627 -1.000568
2010-07-13 05:03:59 51°13.665 2°55.954 22.7242 4.792526 31.926105 -1.035392
2010-07-13 05:04:04 51°13.665 2°55.954 22.7243 4.792421 31.926274 -1.035392
2010-07-13 05:04:09 51°13.664 2°55.954 22.7242 4.792421 31.926274 -1.000568
2010-07-13 05:04:14 51°13.664 2°55.954 22.7243 4.792315 31.925487 -1.035392
2010-07-13 05:04:19 51°13.664 2°55.954 22.7247 4.792315 31.925487 -1.035392
2010-07-13 05:04:24 51°13.664 2°55.954 22.7246 4.792315 31.926443 -1.070216
2010-07-13 05:04:29 51°13.664 2°55.954 22.7243 4.79221 31.925656 -1.035392
2010-07-13 05:04:34 51°13.664 2°55.954 22.724 4.792104 31.925346 -1.070216
2010-07-13 05:04:39 51°13.664 2°55.954 22.7245 4.79221 31.926612 -1.000568
2010-07-13 05:04:44 51°13.664 2°55.954 22.7242 4.792104 31.925346 -1.035392
2010-07-13 05:04:49 51°13.664 2°55.954 22.7244 4.792104 31.925346 -1.035392
2010-07-13 05:04:54 51°13.665 2°55.954 22.7248 4.791999 31.925037 -1.000568
2010-07-13 05:04:59 51°13.664 2°55.954 22.7247 4.791893 31.924727 -1.000568
2010-07-13 05:05:04 51°13.664 2°55.954 22.7245 4.791999 31.925993 -1.000568
2010-07-13 05:05:09 51°13.664 2°55.955 22.7241 4.791999 31.926472 -1.035392
2010-07-13 05:05:14 51°13.664 2°55.955 22.7248 4.791999 31.926472 -1.035392
2010-07-13 05:05:19 51°13.664 2°55.955 22.7244 4.791893 31.925684 -1.035392
2010-07-13 05:05:24 51°13.664 2°55.955 22.7247 4.791893 31.926162 -1.000568
2010-07-13 05:05:29 51°13.664 2°55.955 22.7245 4.791787 31.925853 -1.035392
2010-07-13 05:05:34 51°13.664 2°55.955 22.7245 4.791787 31.926809 -1.035392
2010-07-13 05:05:39 51°13.663 2°55.955 22.7246 4.791682 31.925543 -1.000568
2010-07-13 05:05:44 51°13.663 2°55.955 22.7249 4.791682 31.926022 -1.035392
2010-07-13 05:05:49 51°13.663 2°55.956 22.7246 4.791682 31.926022 -1.035392
2010-07-13 05:05:54 51°13.663 2°55.956 22.7245 4.791576 31.925234 -1.000568
2010-07-13 05:05:59 51°13.663 2°55.956 22.7246 4.791576 31.925712 -1.035392
2010-07-13 05:06:04 51°13.663 2°55.956 22.7249 4.791471 31.925403 -1.000568
2010-07-13 05:06:09 51°13.663 2°55.956 22.7251 4.791471 31.925881 -1.000568
2010-07-13 05:06:14 51°13.663 2°55.955 22.7246 4.791471 31.925881 -1.000568
2010-07-13 05:06:19 51°13.663 2°55.955 22.7245 4.791471 31.925881 -1.000568
2010-07-13 05:06:24 51°13.663 2°55.955 22.7247 4.791471 31.92636 -1.000568
2010-07-13 05:06:29 51°13.663 2°55.955 22.7243 4.791365 31.92605 -1.000568
2010-07-13 05:06:34 51°13.664 2°55.955 22.725 4.791365 31.926529 -1.035392
2010-07-13 05:06:39 51°13.664 2°55.955 22.7246 4.791365 31.92605 -1.000568
2010-07-13 05:06:44 51°13.664 2°55.955 22.7249 4.791365 31.926529 -1.035392
2010-07-13 05:06:49 51°13.664 2°55.955 22.7245 4.791365 31.926529 -1.035392
2010-07-13 05:06:54 51°13.664 2°55.955 22.7244 4.791154 31.92591 -1.000568
2010-07-13 05:06:59 51°13.664 2°55.955 22.7246 4.791154 31.92591 -1.000568
2010-07-13 05:07:04 51°13.664 2°55.955 22.7245 4.791154 31.92591 -1.000568
2010-07-13 05:07:09 51°13.664 2°55.955 22.7246 4.791154 31.926388 -1.000568
2010-07-13 05:07:14 51°13.664 2°55.955 22.7244 4.791049 31.926079 -1.035392
2010-07-13 05:07:19 51°13.664 2°55.955 22.7247 4.791049 31.926079 -1.035392
2010-07-13 05:07:24 51°13.664 2°55.955 22.7245 4.790943 31.925769 -1.035392
2010-07-13 05:07:29 51°13.663 2°55.956 22.7245 4.791049 31.926079 -1.000568
2010-07-13 05:07:34 51°13.663 2°55.956 22.7242 4.790943 31.925769 -1.035392
2010-07-13 05:07:39 51°13.663 2°55.956 22.7242 4.790943 31.926248 -1.000568
2010-07-13 05:07:44 51°13.663 2°55.956 22.7242 4.790943 31.926248 -1.000568
2010-07-13 05:07:49 51°13.663 2°55.956 22.7238 4.790943 31.926726 -1.000568
2010-07-13 05:07:54 51°13.663 2°55.956 22.7235 4.790732 31.925151 -1.035392
2010-07-13 05:07:59 51°13.662 2°55.956 22.7237 4.790732 31.926107 -1.000568
2010-07-13 05:08:04 51°13.662 2°55.956 22.7235 4.790732 31.926107 -1.035392
2010-07-13 05:08:09 51°13.662 2°55.956 22.724 4.790732 31.926107 -1.035392
2010-07-13 05:08:14 51°13.662 2°55.956 22.7234 4.790732 31.926107 -1.035392
2010-07-13 05:08:19 51°13.662 2°55.956 22.7239 4.790732 31.926586 -1.035392
2010-07-13 05:08:24 51°13.662 2°55.957 22.7238 4.790521 31.925489 -1.035392
2010-07-13 05:08:29 51°13.662 2°55.957 22.7235 4.790626 31.926276 -1.000568
2010-07-13 05:08:34 51°13.662 2°55.957 22.7233 4.790521 31.925967 -1.000568
2010-07-13 05:08:39 51°13.662 2°55.957 22.7233 4.790521 31.925967 -1.000568
2010-07-13 05:08:44 51°13.662 2°55.957 22.7235 4.790415 31.926136 -0.965744
2010-07-13 05:08:49 51°13.662 2°55.957 22.7235 4.790415 31.926136 -0.965744
2010-07-13 05:08:54 51°13.662 2°55.957 22.7235 4.79031 31.925348 -1.035392
2010-07-13 05:08:59 51°13.662 2°55.956 22.7234 4.79031 31.925827 -1.000568
2010-07-13 05:09:04 51°13.662 2°55.956 22.7231 4.79031 31.926305 -1.000568
2010-07-13 05:09:09 51°13.662 2°55.956 22.7226 4.79031 31.926305 -1.000568
2010-07-13 05:09:14 51°13.662 2°55.956 22.7232 4.790204 31.925996 -1.000568
2010-07-13 05:09:19 51°13.662 2°55.956 22.723 4.790204 31.925996 -1.000568
2010-07-13 05:09:24 51°13.662 2°55.956 22.7231 4.790204 31.925996 -1.035392
2010-07-13 05:09:29 51°13.662 2°55.956 22.723 4.790204 31.926474 -1.000568
2010-07-13 05:09:34 51°13.662 2°55.956 22.7234 4.789993 31.925377 -1.035392
2010-07-13 05:09:39 51°13.662 2°55.956 22.7229 4.790204 31.926953 -1.000568
2010-07-13 05:09:44 51°13.663 2°55.956 22.7226 4.789993 31.925855 -1.035392
2010-07-13 05:09:49 51°13.663 2°55.956 22.7229 4.789993 31.925855 -1.035392
2010-07-13 05:09:54 51°13.663 2°55.956 22.7227 4.789993 31.926334 -1.035392
2010-07-13 05:09:59 51°13.663 2°55.956 22.7231 4.789887 31.926025 -1.000568
2010-07-13 05:10:04 51°13.663 2°55.956 22.7227 4.789887 31.925546 -1.035392
2010-07-13 05:10:09 51°13.663 2°55.956 22.7231 4.789887 31.926503 -1.070216
2010-07-13 05:10:14 51°13.663 2°55.956 22.7229 4.789887 31.926503 -1.070216
2010-07-13 05:10:19 51°13.663 2°55.956 22.7226 4.789782 31.926194 -1.035392
2010-07-13 05:10:24 51°13.663 2°55.956 22.7224 4.789782 31.926194 -1.000568
2010-07-13 05:10:29 51°13.663 2°55.956 22.7225 4.789782 31.926194 -1.035392
2010-07-13 05:10:34 51°13.663 2°55.956 22.7227 4.789676 31.925884 -1.000568
2010-07-13 05:10:39 51°13.662 2°55.956 22.7225 4.789676 31.926363 -1.000568
2010-07-13 05:10:44 51°13.663 2°55.956 22.7224 4.789676 31.926363 -1.000568
2010-07-13 05:10:49 51°13.663 2°55.956 22.7225 4.789571 31.926053 -1.035392
2010-07-13 05:10:54 51°13.663 2°55.956 22.7222 4.789571 31.926053 -1.035392
2010-07-13 05:10:59 51°13.663 2°55.956 22.7219 4.789465 31.925744 -1.000568
2010-07-13 05:11:04 51°13.663 2°55.956 22.7225 4.789465 31.926223 -1.000568
2010-07-13 05:11:09 51°13.663 2°55.956 22.7222 4.78936 31.925435 -1.000568
2010-07-13 05:11:14 51°13.663 2°55.956 22.722 4.78936 31.925913 -1.000568
2010-07-13 05:11:19 51°13.663 2°55.956 22.7209 4.78936 31.925913 -1.000568
2010-07-13 05:11:24 51°13.663 2°55.956 22.7193 4.78936 31.92687 -1.000568
2010-07-13 05:11:29 51°13.663 2°55.956 22.7175 4.789254 31.926082 -1.035392
2010-07-13 05:11:34 51°13.663 2°55.956 22.7161 4.789254 31.926082 -1.000568
2010-07-13 05:11:39 51°13.663 2°55.956 22.7145 4.78936 31.92687 -1.000568
2010-07-13 05:11:44 51°13.663 2°55.956 22.7136 4.789148 31.926252 -1.035392
2010-07-13 05:11:49 51°13.663 2°55.956 22.7134 4.789148 31.926252 -1.035392
2010-07-13 05:11:54 51°13.663 2°55.956 22.7138 4.789148 31.926252 -1.000568
2010-07-13 05:11:59 51°13.662 2°55.956 22.7144 4.789148 31.926252 -1.000568
2010-07-13 05:12:04 51°13.662 2°55.956 22.7147 4.789043 31.926421 -1.000568
2010-07-13 05:12:09 51°13.662 2°55.956 22.7162 4.788937 31.925633 -1.035392
2010-07-13 05:12:14 51°13.663 2°55.956 22.7169 4.788937 31.926111 -1.035392
2010-07-13 05:12:19 51°13.663 2°55.956 22.7175 4.788937 31.926111 -1.035392
2010-07-13 05:12:24 51°13.663 2°55.956 22.7184 4.788832 31.925323 -1.000568
2010-07-13 05:12:29 51°13.663 2°55.956 22.7175 4.788726 31.925014 -1.000568
2010-07-13 05:12:34 51°13.663 2°55.956 22.7159 4.788832 31.925802 -1.035392
2010-07-13 05:12:39 51°13.663 2°55.956 22.7148 4.788832 31.925802 -1.000568
2010-07-13 05:12:44 51°13.663 2°55.956 22.7151 4.788726 31.925971 -1.035392
2010-07-13 05:12:49 51°13.663 2°55.956 22.715 4.788726 31.925971 -1.035392
2010-07-13 05:12:54 51°13.664 2°55.956 22.7149 4.788832 31.926759 -1.035392
2010-07-13 05:12:59 51°13.664 2°55.956 22.7143 4.788726 31.926929 -1.000568
2010-07-13 05:13:04 51°13.664 2°55.956 22.7143 4.788621 31.926141 -1.035392
2010-07-13 05:13:09 51°13.664 2°55.956 22.7142 4.788621 31.926141 -1.035392
2010-07-13 05:13:14 51°13.664 2°55.956 22.715 4.788621 31.926141 -1.035392
2010-07-13 05:13:19 51°13.664 2°55.956 22.7145 4.788515 31.92631 -1.035392
2010-07-13 05:13:24 51°13.664 2°55.956 22.7148 4.78841 31.926 -1.035392
2010-07-13 05:13:29 51°13.664 2°55.956 22.715 4.788515 31.92631 -1.000568
2010-07-13 05:13:34 51°13.664 2°55.956 22.7149 4.788304 31.925212 -1.035392
2010-07-13 05:13:39 51°13.664 2°55.956 22.7162 4.788304 31.92617 -1.035392
2010-07-13 05:13:44 51°13.664 2°55.956 22.7163 4.78841 31.926479 -1.000568
2010-07-13 05:13:49 51°13.664 2°55.956 22.7162 4.78841 31.926479 -1.000568
2010-07-13 05:13:54 51°13.664 2°55.956 22.7152 4.788304 31.926648 -1.035392
2010-07-13 05:13:59 51°13.664 2°55.956 22.7144 4.788304 31.927127 -1.000568
2010-07-13 05:14:04 51°13.664 2°55.956 22.7131 4.788304 31.926648 -1.000568
2010-07-13 05:14:09 51°13.664 2°55.956 22.7129 4.788093 31.92603 -1.035392
2010-07-13 05:14:14 51°13.664 2°55.956 22.713 4.788093 31.925551 -1.000568
2010-07-13 05:14:19 51°13.664 2°55.956 22.7136 4.788093 31.925551 -1.000568
2010-07-13 05:14:24 51°13.664 2°55.956 22.7134 4.788093 31.926508 -1.035392
2010-07-13 05:14:29 51°13.664 2°55.956 22.7144 4.788093 31.926508 -1.035392
2010-07-13 05:14:34 51°13.664 2°55.956 22.7146 4.788093 31.926987 -1.035392
2010-07-13 05:14:39 51°13.664 2°55.956 22.7148 4.787987 31.926678 -1.035392
2010-07-13 05:14:44 51°13.664 2°55.956 22.7156 4.787882 31.925889 -1.035392
2010-07-13 05:14:49 51°13.664 2°55.956 22.7163 4.787882 31.925889 -1.035392
2010-07-13 05:14:54 51°13.664 2°55.956 22.7164 4.787882 31.925889 -1.035392
2010-07-13 05:14:59 51°13.665 2°55.956 22.7172 4.787882 31.926847 -1.035392
2010-07-13 05:15:04 51°13.665 2°55.956 22.7173 4.787776 31.926538 -1.000568
2010-07-13 05:15:09 51°13.664 2°55.956 22.7177 4.787776 31.926538 -1.035392
2010-07-13 05:15:14 51°13.664 2°55.956 22.7169 4.787776 31.926538 -1.035392
2010-07-13 05:15:19 51°13.664 2°55.956 22.7173 4.787671 31.926228 -1.035392
2010-07-13 05:15:24 51°13.664 2°55.956 22.7171 4.787671 31.926707 -1.000568
2010-07-13 05:15:29 51°13.664 2°55.956 22.7179 4.787671 31.927186 -1.000568
2010-07-13 05:15:34 51°13.664 2°55.956 22.7183 4.787565 31.926398 -1.035392
2010-07-13 05:15:39 51°13.664 2°55.956 22.7182 4.787671 31.927186 -1.035392
2010-07-13 05:15:44 51°13.664 2°55.956 22.7186 4.787671 31.927186 -1.035392
2010-07-13 05:15:49 51°13.664 2°55.956 22.7187 4.787565 31.926876 -1.000568
2010-07-13 05:15:54 51°13.664 2°55.956 22.719 4.78746 31.926567 -0.965744
2010-07-13 05:15:59 51°13.664 2°55.956 22.7182 4.787354 31.926258 -1.035392
2010-07-13 05:16:04 51°13.664 2°55.956 22.7184 4.787354 31.925779 -1.000568
2010-07-13 05:16:09 51°13.664 2°55.956 22.7183 4.787248 31.925469 -1.000568
2010-07-13 05:16:14 51°13.664 2°55.956 22.7185 4.787248 31.925948 -1.000568
2010-07-13 05:16:19 51°13.664 2°55.956 22.7187 4.787248 31.925948 -1.000568
2010-07-13 05:16:24 51°13.664 2°55.956 22.7185 4.787143 31.925639 -1.035392
2010-07-13 05:16:29 51°13.665 2°55.956 22.7191 4.787354 31.927215 -1.035392
2010-07-13 05:16:34 51°13.665 2°55.956 22.7191 4.787143 31.926118 -1.035392
2010-07-13 05:16:39 51°13.665 2°55.956 22.7187 4.787143 31.926596 -1.035392
2010-07-13 05:16:44 51°13.665 2°55.956 22.7189 4.787037 31.926287 -1.000568
2010-07-13 05:16:49 51°13.665 2°55.956 22.7195 4.787037 31.926287 -1.000568
2010-07-13 05:16:54 51°13.665 2°55.956 22.7195 4.787037 31.926287 -1.035392
2010-07-13 05:16:59 51°13.665 2°55.956 22.7194 4.786932 31.925978 -1.000568
2010-07-13 05:17:04 51°13.665 2°55.956 22.7195 4.786932 31.926456 -1.000568
2010-07-13 05:17:09 51°13.665 2°55.956 22.7196 4.786932 31.926456 -1.000568
2010-07-13 05:17:14 51°13.665 2°55.956 22.7198 4.786932 31.926456 -1.000568
2010-07-13 05:17:19 51°13.665 2°55.956 22.7198 4.786932 31.926456 -1.000568
2010-07-13 05:17:24 51°13.665 2°55.956 22.7201 4.786826 31.926147 -1.000568
2010-07-13 05:17:29 51°13.665 2°55.956 22.7193 4.786826 31.926626 -1.000568
2010-07-13 05:17:34 51°13.665 2°55.956 22.7194 4.786615 31.925528 -1.035392
2010-07-13 05:17:39 51°13.665 2°55.956 22.7187 4.786721 31.927275 -1.000568
2010-07-13 05:17:44 51°13.665 2°55.956 22.7192 4.786615 31.926007 -1.000568
2010-07-13 05:17:49 51°13.665 2°55.956 22.7196 4.786615 31.926007 -1.000568
2010-07-13 05:17:54 51°13.665 2°55.956 22.7194 4.786615 31.926007 -1.035392
2010-07-13 05:17:59 51°13.665 2°55.956 22.7194 4.78651 31.926177 -1.000568
2010-07-13 05:18:04 51°13.665 2°55.956 22.7193 4.78651 31.926177 -1.000568
2010-07-13 05:18:09 51°13.665 2°55.956 22.7193 4.78651 31.926656 -1.000568
2010-07-13 05:18:14 51°13.665 2°55.956 22.7191 4.78651 31.926656 -1.000568
2010-07-13 05:18:19 51°13.665 2°55.956 22.7198 4.78651 31.927135 -1.035392
2010-07-13 05:18:24 51°13.665 2°55.957 22.7189 4.786298 31.925558 -1.000568
2010-07-13 05:18:29 51°13.665 2°55.957 22.7193 4.786404 31.926825 -1.000568
2010-07-13 05:18:34 51°13.665 2°55.957 22.719 4.786298 31.926037 -1.000568
2010-07-13 05:18:39 51°13.665 2°55.957 22.7191 4.786298 31.926516 -1.000568
2010-07-13 05:18:44 51°13.665 2°55.957 22.7189 4.786298 31.926516 -1.000568
2010-07-13 05:18:49 51°13.665 2°55.957 22.7193 4.786298 31.926995 -1.035392
2010-07-13 05:18:54 51°13.665 2°55.957 22.7191 4.786193 31.926206 -1.035392
2010-07-13 05:18:59 51°13.665 2°55.957 22.7195 4.786193 31.926685 -1.035392
2010-07-13 05:19:04 51°13.665 2°55.957 22.7196 4.786087 31.926376 -1.000568
2010-07-13 05:19:09 51°13.665 2°55.957 22.7195 4.785982 31.926066 -1.000568
2010-07-13 05:19:14 51°13.665 2°55.957 22.7196 4.785876 31.925278 -1.070216
2010-07-13 05:19:19 51°13.665 2°55.956 22.7196 4.785876 31.925278 -1.070216
2010-07-13 05:19:24 51°13.665 2°55.956 22.7194 4.785982 31.926066 -1.035392
2010-07-13 05:19:29 51°13.665 2°55.956 22.7195 4.785982 31.926545 -1.035392
2010-07-13 05:19:34 51°13.665 2°55.956 22.7196 4.785876 31.926236 -1.035392
2010-07-13 05:19:39 51°13.665 2°55.956 22.7198 4.785771 31.925926 -1.070216
2010-07-13 05:19:44 51°13.665 2°55.956 22.7198 4.785771 31.925926 -1.000568
2010-07-13 05:19:49 51°13.665 2°55.956 22.7198 4.785771 31.925926 -1.000568
2010-07-13 05:19:54 51°13.665 2°55.956 22.7199 4.785771 31.926885 -1.000568
2010-07-13 05:19:59 51°13.665 2°55.956 22.7196 4.785665 31.926096 -1.035392
2010-07-13 05:20:04 51°13.665 2°55.956 22.7195 4.785771 31.926885 -1.000568
2010-07-13 05:20:09 51°13.665 2°55.956 22.7195 4.785559 31.925786 -1.000568
2010-07-13 05:20:14 51°13.665 2°55.957 22.7198 4.785665 31.926575 -1.035392
2010-07-13 05:20:19 51°13.665 2°55.957 22.7193 4.785665 31.926575 -1.035392
2010-07-13 05:20:24 51°13.665 2°55.957 22.7196 4.785454 31.925477 -1.000568
2010-07-13 05:20:29 51°13.665 2°55.957 22.7192 4.785454 31.925956 -1.035392
2010-07-13 05:20:34 51°13.665 2°55.957 22.7189 4.78556 31.927224 -1.035392
2010-07-13 05:20:39 51°13.665 2°55.957 22.7189 4.785348 31.925167 -0.965744
2010-07-13 05:20:44 51°13.665 2°55.957 22.7192 4.785348 31.925167 -0.965744
2010-07-13 05:20:49 51°13.665 2°55.957 22.719 4.785454 31.926914 -1.035392
2010-07-13 05:20:54 51°13.665 2°55.957 22.719 4.785348 31.926605 -1.000568
2010-07-13 05:20:59 51°13.665 2°55.957 22.719 4.785243 31.925816 -1.035392
2010-07-13 05:21:04 51°13.665 2°55.957 22.7189 4.785243 31.926295 -1.035392
2010-07-13 05:21:09 51°13.665 2°55.957 22.719 4.785243 31.926295 -1.035392
2010-07-13 05:21:14 51°13.665 2°55.957 22.719 4.785137 31.925986 -1.000568
2010-07-13 05:21:19 51°13.665 2°55.957 22.7191 4.785137 31.925986 -1.000568
2010-07-13 05:21:24 51°13.666 2°55.957 22.7187 4.785032 31.925676 -1.035392
2010-07-13 05:21:29 51°13.666 2°55.957 22.7192 4.785243 31.927254 -1.000568
2010-07-13 05:21:34 51°13.666 2°55.957 22.719 4.785032 31.926156 -1.000568
2010-07-13 05:21:39 51°13.666 2°55.957 22.7195 4.784926 31.925846 -1.000568
2010-07-13 05:21:44 51°13.666 2°55.957 22.7192 4.784926 31.925846 -1.000568
2010-07-13 05:21:49 51°13.665 2°55.957 22.7196 4.785032 31.926635 -1.035392
2010-07-13 05:21:54 51°13.665 2°55.957 22.7199 4.784926 31.926325 -1.035392
2010-07-13 05:21:59 51°13.665 2°55.957 22.7196 4.784926 31.926805 -1.000568
2010-07-13 05:22:04 51°13.665 2°55.957 22.7196 4.784821 31.926495 -1.035392
2010-07-13 05:22:09 51°13.665 2°55.957 22.72 4.784821 31.926495 -1.035392
2010-07-13 05:22:14 51°13.665 2°55.957 22.7194 4.784609 31.925397 -1.000568
2010-07-13 05:22:19 51°13.665 2°55.957 22.7194 4.784609 31.925397 -1.000568
2010-07-13 05:22:24 51°13.665 2°55.957 22.7193 4.784609 31.925876 -1.035392
2010-07-13 05:22:29 51°13.665 2°55.957 22.7198 4.784609 31.926355 -1.000568
2010-07-13 05:22:34 51°13.665 2°55.957 22.72 4.784504 31.925087 -1.000568
2010-07-13 05:22:39 51°13.665 2°55.957 22.7201 4.784504 31.925566 -1.035392
2010-07-13 05:22:44 51°13.665 2°55.957 22.72 4.784504 31.926046 -1.000568
2010-07-13 05:22:49 51°13.665 2°55.957 22.7199 4.784504 31.926046 -1.000568
2010-07-13 05:22:54 51°13.665 2°55.957 22.72 4.784504 31.926525 -1.000568
2010-07-13 05:22:59 51°13.665 2°55.956 22.7202 4.784398 31.926215 -1.000568
2010-07-13 05:23:04 51°13.665 2°55.956 22.7195 4.784504 31.926525 -1.000568
2010-07-13 05:23:09 51°13.665 2°55.956 22.7203 4.784398 31.926215 -1.035392
2010-07-13 05:23:14 51°13.665 2°55.956 22.7202 4.784398 31.927174 -1.000568
2010-07-13 05:23:19 51°13.665 2°55.956 22.7202 4.784398 31.927174 -1.000568
2010-07-13 05:23:24 51°13.665 2°55.956 22.72 4.784293 31.926385 -1.000568
2010-07-13 05:23:29 51°13.665 2°55.956 22.7204 4.784187 31.926076 -1.035392
2010-07-13 05:23:34 51°13.665 2°55.956 22.7201 4.784187 31.926555 -1.000568
2010-07-13 05:23:39 51°13.665 2°55.956 22.7198 4.784187 31.926555 -1.000568
2010-07-13 05:23:44 51°13.665 2°55.956 22.7198 4.784082 31.925766 -1.035392
2010-07-13 05:23:49 51°13.665 2°55.956 22.72 4.784082 31.925766 -1.035392
2010-07-13 05:23:54 51°13.665 2°55.956 22.7199 4.783976 31.925457 -1.035392
2010-07-13 05:23:59 51°13.665 2°55.956 22.7201 4.784082 31.926725 -1.035392
2010-07-13 05:24:04 51°13.665 2°55.956 22.7198 4.784082 31.927204 -1.035392
2010-07-13 05:24:09 51°13.665 2°55.956 22.7204 4.783871 31.925626 -1.000568
2010-07-13 05:24:14 51°13.665 2°55.956 22.7199 4.783871 31.925626 -1.000568
2010-07-13 05:24:19 51°13.665 2°55.956 22.7203 4.783871 31.926106 -1.035392
2010-07-13 05:24:24 51°13.665 2°55.956 22.7198 4.783871 31.926106 -0.965744
2010-07-13 05:24:29 51°13.665 2°55.956 22.7203 4.783871 31.927065 -1.000568
2010-07-13 05:24:34 51°13.665 2°55.956 22.7196 4.783871 31.927065 -1.000568
2010-07-13 05:24:39 51°13.665 2°55.956 22.7198 4.783765 31.926755 -1.035392
2010-07-13 05:24:44 51°13.665 2°55.956 22.7202 4.783659 31.926446 -1.035392
2010-07-13 05:24:49 51°13.665 2°55.956 22.7203 4.783659 31.926446 -1.035392
2010-07-13 05:24:54 51°13.665 2°55.956 22.72 4.783765 31.927234 -1.000568
2010-07-13 05:24:59 51°13.665 2°55.956 22.7198 4.783765 31.927234 -1.000568
2010-07-13 05:25:04 51°13.665 2°55.956 22.72 4.783554 31.926136 -1.035392
2010-07-13 05:25:09 51°13.665 2°55.956 22.7201 4.783554 31.926136 -1.000568
2010-07-13 05:25:14 51°13.665 2°55.955 22.7204 4.783448 31.925826 -1.000568
2010-07-13 05:25:19 51°13.665 2°55.955 22.7198 4.783448 31.925826 -1.000568
2010-07-13 05:25:24 51°13.665 2°55.955 22.7201 4.783554 31.927095 -1.035392
2010-07-13 05:25:29 51°13.665 2°55.955 22.7203 4.783343 31.926476 -1.035392
2010-07-13 05:25:34 51°13.665 2°55.955 22.7202 4.783448 31.926785 -1.000568
2010-07-13 05:25:39 51°13.665 2°55.955 22.7199 4.783343 31.925996 -1.035392
2010-07-13 05:25:44 51°13.665 2°55.955 22.7204 4.783237 31.926166 -1.000568
2010-07-13 05:25:49 51°13.665 2°55.955 22.72 4.783237 31.926166 -1.000568
2010-07-13 05:25:54 51°13.665 2°55.955 22.7201 4.783237 31.926646 -1.000568
2010-07-13 05:25:59 51°13.665 2°55.955 22.7209 4.783237 31.926166 -1.035392
2010-07-13 05:26:04 51°13.666 2°55.955 22.7203 4.783026 31.925547 -1.035392
2010-07-13 05:26:09 51°13.666 2°55.955 22.72 4.783026 31.926027 -1.035392
2010-07-13 05:26:14 51°13.666 2°55.955 22.7204 4.783026 31.926027 -1.000568
2010-07-13 05:26:19 51°13.665 2°55.955 22.7201 4.783026 31.926027 -1.000568
2010-07-13 05:26:24 51°13.665 2°55.956 22.7203 4.782921 31.925717 -1.035392
2010-07-13 05:26:29 51°13.666 2°55.956 22.7202 4.782921 31.925717 -1.035392
2010-07-13 05:26:34 51°13.665 2°55.956 22.7205 4.782921 31.926676 -1.035392
2010-07-13 05:26:39 51°13.666 2°55.956 22.7202 4.782921 31.926197 -1.000568
2010-07-13 05:26:44 51°13.666 2°55.956 22.7204 4.782921 31.926197 -1.000568
2010-07-13 05:26:49 51°13.666 2°55.956 22.7202 4.782815 31.926366 -1.035392
2010-07-13 05:26:54 51°13.666 2°55.956 22.7201 4.782709 31.926057 -1.000568
2010-07-13 05:26:59 51°13.666 2°55.956 22.7201 4.782709 31.926057 -1.000568
2010-07-13 05:27:04 51°13.666 2°55.956 22.7199 4.782815 31.926846 -1.035392
2010-07-13 05:27:09 51°13.666 2°55.956 22.7201 4.782709 31.926536 -1.035392
2010-07-13 05:27:14 51°13.666 2°55.956 22.7203 4.782709 31.926536 -1.035392
2010-07-13 05:27:19 51°13.666 2°55.956 22.7199 4.782709 31.926536 -1.035392
2010-07-13 05:27:24 51°13.666 2°55.956 22.7196 4.782604 31.926227 -1.035392
2010-07-13 05:27:29 51°13.666 2°55.956 22.7202 4.782498 31.925917 -1.000568
2010-07-13 05:27:34 51°13.665 2°55.956 22.7198 4.782498 31.925917 -1.035392
2010-07-13 05:27:39 51°13.665 2°55.956 22.7194 4.782498 31.926397 -1.000568
2010-07-13 05:27:44 51°13.665 2°55.957 22.7199 4.782498 31.926876 -1.035392
2010-07-13 05:27:49 51°13.665 2°55.957 22.7193 4.782498 31.926876 -1.035392
2010-07-13 05:27:54 51°13.665 2°55.957 22.7196 4.782393 31.926087 -1.035392
2010-07-13 05:27:59 51°13.665 2°55.957 22.7196 4.782287 31.925778 -1.035392
2010-07-13 05:28:04 51°13.665 2°55.957 22.7196 4.782287 31.926257 -1.035392
2010-07-13 05:28:09 51°13.665 2°55.957 22.7195 4.782287 31.926257 -1.035392
2010-07-13 05:28:14 51°13.665 2°55.957 22.7192 4.782182 31.925468 -1.000568
2010-07-13 05:28:19 51°13.665 2°55.957 22.7195 4.782182 31.925468 -1.000568
2010-07-13 05:28:24 51°13.666 2°55.957 22.7196 4.782182 31.926427 -1.000568
2010-07-13 05:28:29 51°13.666 2°55.957 22.7197 4.782182 31.926907 -1.035392
2010-07-13 05:28:34 51°13.666 2°55.957 22.7199 4.782076 31.926118 -1.035392
2010-07-13 05:28:39 51°13.667 2°55.957 22.7198 4.781971 31.925808 -1.035392
2010-07-13 05:28:44 51°13.667 2°55.957 22.72 4.781971 31.925808 -1.000568
2010-07-13 05:28:49 51°13.667 2°55.957 22.72 4.781971 31.925808 -1.000568
2010-07-13 05:28:54 51°13.667 2°55.957 22.7196 4.781865 31.925499 -1.035392
2010-07-13 05:28:59 51°13.667 2°55.957 22.7202 4.782076 31.927077 -1.035392
2010-07-13 05:29:04 51°13.667 2°55.957 22.7201 4.781865 31.925978 -1.035392
2010-07-13 05:29:09 51°13.667 2°55.957 22.7203 4.781865 31.926458 -1.035392
2010-07-13 05:29:14 51°13.667 2°55.957 22.7203 4.781865 31.926458 -1.035392
2010-07-13 05:29:19 51°13.667 2°55.957 22.7204 4.781865 31.926938 -1.000568
2010-07-13 05:29:24 51°13.667 2°55.957 22.7206 4.781759 31.926148 -1.000568
2010-07-13 05:29:29 51°13.667 2°55.957 22.7205 4.781759 31.926148 -1.000568
2010-07-13 05:29:34 51°13.667 2°55.957 22.7206 4.781654 31.925839 -1.035392
2010-07-13 05:29:39 51°13.667 2°55.957 22.7208 4.781654 31.926798 -1.035392
2010-07-13 05:29:44 51°13.668 2°55.957 22.7212 4.781654 31.926798 -1.035392
2010-07-13 05:29:49 51°13.668 2°55.957 22.7207 4.781759 31.927587 -1.000568
2010-07-13 05:29:54 51°13.668 2°55.957 22.7211 4.781654 31.926798 -1.000568
2010-07-13 05:29:59 51°13.668 2°55.957 22.7208 4.781443 31.926179 -1.035392
2010-07-13 05:30:04 51°13.668 2°55.957 22.7211 4.781443 31.926179 -1.035392
2010-07-13 05:30:09 51°13.668 2°55.957 22.7209 4.781443 31.926659 -1.000568
2010-07-13 05:30:14 51°13.668 2°55.957 22.7206 4.781548 31.926968 -1.000568
2010-07-13 05:30:19 51°13.668 2°55.956 22.7211 4.781548 31.926968 -1.000568
2010-07-13 05:30:24 51°13.668 2°55.956 22.7209 4.781443 31.926659 -1.035392
2010-07-13 05:30:29 51°13.668 2°55.956 22.7213 4.781337 31.926829 -1.000568
2010-07-13 05:30:34 51°13.668 2°55.956 22.7211 4.781232 31.926039 -1.035392
2010-07-13 05:30:39 51°13.668 2°55.956 22.721 4.781232 31.926519 -1.035392
2010-07-13 05:30:44 51°13.668 2°55.956 22.721 4.781126 31.92573 -1.000568
2010-07-13 05:30:49 51°13.667 2°55.956 22.7205 4.781126 31.92573 -1.000568
2010-07-13 05:30:54 51°13.668 2°55.956 22.721 4.781232 31.926519 -1.035392
2010-07-13 05:30:59 51°13.668 2°55.956 22.7209 4.781126 31.92621 -1.035392
2010-07-13 05:31:04 51°13.668 2°55.956 22.7211 4.781021 31.9259 -1.035392
2010-07-13 05:31:09 51°13.667 2°55.956 22.7211 4.781126 31.927169 -1.035392
2010-07-13 05:31:14 51°13.667 2°55.956 22.7209 4.780915 31.92607 -1.000568
2010-07-13 05:31:19 51°13.667 2°55.956 22.721 4.780915 31.92607 -1.000568
2010-07-13 05:31:24 51°13.667 2°55.956 22.721 4.781021 31.92686 -1.000568
2010-07-13 05:31:29 51°13.667 2°55.956 22.721 4.780915 31.92607 -1.035392
2010-07-13 05:31:34 51°13.667 2°55.956 22.7209 4.780809 31.92624 -1.000568
2010-07-13 05:31:39 51°13.667 2°55.956 22.7212 4.780915 31.92703 -1.000568
2010-07-13 05:31:44 51°13.667 2°55.956 22.7209 4.780915 31.92703 -1.000568
2010-07-13 05:31:49 51°13.667 2°55.956 22.7205 4.780704 31.925931 -1.035392
2010-07-13 05:31:54 51°13.667 2°55.956 22.721 4.780704 31.926411 -1.035392
2010-07-13 05:31:59 51°13.667 2°55.956 22.7209 4.780704 31.926411 -1.000568
2010-07-13 05:32:04 51°13.666 2°55.956 22.7205 4.780704 31.92689 -1.000568
2010-07-13 05:32:09 51°13.667 2°55.957 22.7207 4.780598 31.926581 -1.035392
2010-07-13 05:32:14 51°13.666 2°55.957 22.7207 4.780598 31.926581 -1.035392
2010-07-13 05:32:19 51°13.667 2°55.957 22.7206 4.780598 31.927061 -1.035392
2010-07-13 05:32:24 51°13.666 2°55.957 22.7209 4.780493 31.926271 -1.035392
2010-07-13 05:32:29 51°13.666 2°55.957 22.7208 4.780493 31.926271 -1.000568
2010-07-13 05:32:34 51°13.666 2°55.957 22.7206 4.780493 31.926271 -1.035392
2010-07-13 05:32:39 51°13.666 2°55.957 22.7209 4.780387 31.926441 -1.000568
2010-07-13 05:32:44 51°13.666 2°55.956 22.7207 4.780387 31.926441 -1.000568
2010-07-13 05:32:49 51°13.666 2°55.956 22.7208 4.780493 31.927231 -1.035392
2010-07-13 05:32:54 51°13.667 2°55.956 22.7204 4.780282 31.925652 -1.035392
2010-07-13 05:32:59 51°13.667 2°55.956 22.7206 4.780282 31.926132 -1.000568
2010-07-13 05:33:04 51°13.667 2°55.956 22.7204 4.780282 31.927092 -1.035392
2010-07-13 05:33:09 51°13.667 2°55.956 22.7205 4.780176 31.926302 -1.035392
2010-07-13 05:33:14 51°13.667 2°55.956 22.7202 4.780176 31.926302 -1.035392
2010-07-13 05:33:19 51°13.666 2°55.956 22.7204 4.780176 31.926302 -1.035392
2010-07-13 05:33:24 51°13.666 2°55.956 22.7205 4.780176 31.926782 -1.000568
2010-07-13 05:33:29 51°13.666 2°55.956 22.7199 4.780282 31.927572 -1.035392
2010-07-13 05:33:34 51°13.666 2°55.956 22.7204 4.780176 31.927262 -1.000568
2010-07-13 05:33:39 51°13.666 2°55.956 22.7203 4.780071 31.926952 -1.035392
2010-07-13 05:33:44 51°13.666 2°55.956 22.7205 4.779859 31.925373 -1.070216
2010-07-13 05:33:49 51°13.666 2°55.956 22.7202 4.779859 31.925373 -1.070216
2010-07-13 05:33:54 51°13.666 2°55.956 22.72 4.779965 31.927123 -1.000568
2010-07-13 05:33:59 51°13.666 2°55.956 22.72 4.779965 31.927123 -1.035392
2010-07-13 05:34:04 51°13.666 2°55.956 22.72 4.779965 31.927123 -1.000568
2010-07-13 05:34:09 51°13.666 2°55.956 22.7202 4.779754 31.926023 -1.035392
2010-07-13 05:34:14 51°13.666 2°55.956 22.7204 4.779754 31.926023 -1.035392
2010-07-13 05:34:19 51°13.666 2°55.956 22.7202 4.779754 31.926023 -1.035392
2010-07-13 05:34:24 51°13.666 2°55.956 22.7198 4.779754 31.926983 -1.000568
2010-07-13 05:34:29 51°13.665 2°55.956 22.7142 4.779754 31.926983 -1.035392
2010-07-13 05:34:34 51°13.665 2°55.956 22.6827 4.779648 31.926674 -1.000568
2010-07-13 05:34:39 51°13.665 2°55.956 22.7015 4.779648 31.927154 -1.035392
2010-07-13 05:34:44 51°13.665 2°55.956 22.7039 4.779648 31.927154 -1.035392
2010-07-13 05:34:49 51°13.665 2°55.956 22.705 4.779437 31.925574 -1.000568
2010-07-13 05:34:54 51°13.665 2°55.956 22.7032 4.779543 31.926844 -1.035392
2010-07-13 05:34:59 51°13.665 2°55.956 22.7023 4.779437 31.926054 -1.000568
2010-07-13 05:35:04 51°13.665 2°55.956 22.7034 4.779437 31.926535 -1.035392
2010-07-13 05:35:09 51°13.665 2°55.956 22.7041 4.779332 31.926225 -1.000568
2010-07-13 05:35:14 51°13.665 2°55.955 22.7035 4.779332 31.926225 -1.000568
2010-07-13 05:35:19 51°13.665 2°55.955 22.7024 4.779437 31.927015 -1.000568
2010-07-13 05:35:24 51°13.665 2°55.955 22.7036 4.779332 31.926225 -1.000568
2010-07-13 05:35:29 51°13.665 2°55.955 22.7025 4.779332 31.926705 -1.000568
2010-07-13 05:35:34 51°13.665 2°55.955 22.7025 4.779226 31.926395 -1.000568
2010-07-13 05:35:39 51°13.665 2°55.955 22.703 4.77912 31.926086 -1.035392
2010-07-13 05:35:44 51°13.665 2°55.955 22.7036 4.77912 31.926086 -1.035392
2010-07-13 05:35:49 51°13.665 2°55.955 22.7042 4.77912 31.926086 -1.035392
2010-07-13 05:35:54 51°13.665 2°55.955 22.7053 4.779226 31.927355 -1.035392
2010-07-13 05:35:59 51°13.665 2°55.955 22.7049 4.77912 31.927046 -1.000568
2010-07-13 05:36:04 51°13.665 2°55.954 22.7059 4.779015 31.926256 -1.035392
2010-07-13 05:36:09 51°13.665 2°55.954 22.7066 4.779015 31.926736 -1.000568
2010-07-13 05:36:14 51°13.665 2°55.954 22.706 4.778804 31.925157 -1.035392
2010-07-13 05:36:19 51°13.665 2°55.954 22.7056 4.778804 31.925157 -1.035392
2010-07-13 05:36:24 51°13.665 2°55.954 22.7057 4.778804 31.925637 -1.000568
2010-07-13 05:36:29 51°13.665 2°55.954 22.7053 4.778804 31.926117 -1.000568
2010-07-13 05:36:34 51°13.665 2°55.954 22.704 4.778909 31.926907 -1.035392
2010-07-13 05:36:39 51°13.665 2°55.954 22.7053 4.778698 31.925807 -1.035392
2010-07-13 05:36:44 51°13.665 2°55.954 22.7051 4.778698 31.926287 -1.000568
2010-07-13 05:36:49 51°13.665 2°55.954 22.7061 4.778698 31.926287 -1.000568
2010-07-13 05:36:54 51°13.665 2°55.954 22.7055 4.778804 31.927077 -1.035392
2010-07-13 05:36:59 51°13.665 2°55.954 22.7057 4.778593 31.925978 -1.035392
2010-07-13 05:37:04 51°13.665 2°55.954 22.705 4.778593 31.926458 -1.000568
2010-07-13 05:37:09 51°13.665 2°55.954 22.7058 4.778593 31.926458 -1.000568
2010-07-13 05:37:14 51°13.665 2°55.954 22.706 4.778593 31.926458 -1.000568
2010-07-13 05:37:19 51°13.665 2°55.954 22.7059 4.778487 31.925668 -1.035392
2010-07-13 05:37:24 51°13.665 2°55.954 22.7069 4.778487 31.926148 -1.035392
2010-07-13 05:37:29 51°13.665 2°55.954 22.7069 4.778382 31.925838 -1.035392
2010-07-13 05:37:34 51°13.664 2°55.954 22.706 4.778382 31.926319 -1.000568
2010-07-13 05:37:39 51°13.665 2°55.954 22.7066 4.778276 31.926009 -1.035392
2010-07-13 05:37:44 51°13.665 2°55.955 22.7065 4.778276 31.926009 -1.035392
2010-07-13 05:37:49 51°13.665 2°55.955 22.707 4.778276 31.926009 -1.000568
2010-07-13 05:37:54 51°13.664 2°55.955 22.7058 4.778276 31.926009 -1.000568
2010-07-13 05:37:59 51°13.664 2°55.955 22.707 4.778276 31.926489 -1.035392
2010-07-13 05:38:04 51°13.664 2°55.955 22.7071 4.77817 31.926179 -1.035392
2010-07-13 05:38:09 51°13.664 2°55.955 22.7067 4.77817 31.926179 -1.000568
2010-07-13 05:38:14 51°13.664 2°55.955 22.7074 4.778065 31.92587 -1.035392
2010-07-13 05:38:19 51°13.664 2°55.955 22.7075 4.778065 31.92587 -1.035392
2010-07-13 05:38:24 51°13.664 2°55.955 22.707 4.778065 31.92635 -1.000568
2010-07-13 05:38:29 51°13.664 2°55.955 22.7064 4.777959 31.92604 -1.035392
2010-07-13 05:38:34 51°13.665 2°55.956 22.7075 4.778065 31.92635 -1.035392
2010-07-13 05:38:39 51°13.665 2°55.956 22.7063 4.777959 31.92652 -1.035392
2010-07-13 05:38:44 51°13.665 2°55.956 22.7073 4.777959 31.92652 -1.000568
2010-07-13 05:38:49 51°13.665 2°55.955 22.7077 4.777959 31.92652 -1.000568
2010-07-13 05:38:54 51°13.665 2°55.955 22.7072 4.777854 31.926691 -1.035392
2010-07-13 05:38:59 51°13.665 2°55.955 22.7081 4.777854 31.927171 -1.000568
2010-07-13 05:39:04 51°13.665 2°55.955 22.7064 4.777748 31.926381 -1.000568
2010-07-13 05:39:09 51°13.665 2°55.955 22.7066 4.777854 31.927171 -1.035392
2010-07-13 05:39:14 51°13.665 2°55.955 22.7068 4.777748 31.926862 -1.000568
2010-07-13 05:39:19 51°13.665 2°55.955 22.7075 4.777748 31.926862 -1.000568
2010-07-13 05:39:24 51°13.665 2°55.955 22.7077 4.777643 31.926072 -1.000568
2010-07-13 05:39:29 51°13.665 2°55.955 22.7082 4.777537 31.925762 -1.035392
2010-07-13 05:39:34 51°13.665 2°55.955 22.7064 4.777537 31.926242 -1.000568
2010-07-13 05:39:39 51°13.665 2°55.955 22.7077 4.777643 31.927512 -1.035392
2010-07-13 05:39:44 51°13.666 2°55.955 22.7074 4.777537 31.926722 -1.000568
2010-07-13 05:39:49 51°13.666 2°55.955 22.7088 4.777537 31.926722 -1.000568
2010-07-13 05:39:54 51°13.666 2°55.955 22.7087 4.777432 31.925932 -1.035392
2010-07-13 05:39:59 51°13.666 2°55.955 22.7095 4.777432 31.926413 -1.000568
2010-07-13 05:40:04 51°13.666 2°55.955 22.7102 4.777432 31.926893 -1.035392
2010-07-13 05:40:09 51°13.666 2°55.955 22.71 4.777326 31.926583 -1.035392
2010-07-13 05:40:14 51°13.666 2°55.955 22.7092 4.777326 31.926583 -1.035392
2010-07-13 05:40:19 51°13.666 2°55.955 22.7097 4.777326 31.926583 -1.035392
2010-07-13 05:40:24 51°13.666 2°55.955 22.7099 4.77722 31.926274 -1.035392
2010-07-13 05:40:29 51°13.666 2°55.955 22.7094 4.77722 31.926754 -1.035392
2010-07-13 05:40:34 51°13.666 2°55.955 22.709 4.777115 31.925964 -1.035392
2010-07-13 05:40:39 51°13.666 2°55.955 22.7104 4.77722 31.927715 -1.000568
2010-07-13 05:40:44 51°13.666 2°55.955 22.7113 4.77722 31.927715 -1.000568
2010-07-13 05:40:49 51°13.666 2°55.955 22.7111 4.777115 31.926925 -1.000568
2010-07-13 05:40:54 51°13.666 2°55.955 22.7094 4.777115 31.926925 -1.035392
2010-07-13 05:40:59 51°13.666 2°55.955 22.7104 4.777009 31.926615 -1.000568
2010-07-13 05:41:04 51°13.666 2°55.956 22.7116 4.776904 31.925825 -1.000568
2010-07-13 05:41:09 51°13.666 2°55.955 22.7108 4.776904 31.925825 -1.070216
2010-07-13 05:41:14 51°13.666 2°55.955 22.7101 4.777009 31.927576 -0.965744
2010-07-13 05:41:19 51°13.666 2°55.955 22.711 4.777009 31.927576 -0.965744
2010-07-13 05:41:24 51°13.666 2°55.956 22.7129 4.776798 31.926476 -1.035392
2010-07-13 05:41:29 51°13.666 2°55.956 22.7133 4.776904 31.926786 -1.035392
2010-07-13 05:41:34 51°13.666 2°55.956 22.7113 4.776693 31.926166 -1.035392
2010-07-13 05:41:39 51°13.666 2°55.956 22.7095 4.776693 31.926166 -1.000568
2010-07-13 05:41:44 51°13.667 2°55.956 22.7108 4.776693 31.926647 -1.035392
2010-07-13 05:41:49 51°13.667 2°55.956 22.7123 4.776693 31.926647 -1.035392
2010-07-13 05:41:54 51°13.667 2°55.956 22.7115 4.776587 31.925857 -1.035392
2010-07-13 05:41:59 51°13.667 2°55.955 22.7108 4.776587 31.925857 -1.000568
2010-07-13 05:42:04 51°13.667 2°55.955 22.7105 4.776587 31.926337 -1.035392
2010-07-13 05:42:09 51°13.667 2°55.955 22.7101 4.776482 31.926508 -1.000568
2010-07-13 05:42:14 51°13.667 2°55.955 22.7108 4.776376 31.925718 -1.000568
2010-07-13 05:42:19 51°13.667 2°55.955 22.7106 4.776376 31.925718 -1.000568
2010-07-13 05:42:24 51°13.667 2°55.955 22.7112 4.776376 31.926198 -1.000568
2010-07-13 05:42:29 51°13.667 2°55.955 22.7112 4.776376 31.926678 -1.035392
2010-07-13 05:42:34 51°13.667 2°55.955 22.7126 4.776376 31.926678 -1.035392
2010-07-13 05:42:39 51°13.666 2°55.955 22.7127 4.77627 31.926369 -1.035392
2010-07-13 05:42:44 51°13.666 2°55.955 22.7144 4.77627 31.926369 -1.035392
2010-07-13 05:42:49 51°13.666 2°55.955 22.7136 4.77627 31.926849 -1.000568
2010-07-13 05:42:54 51°13.666 2°55.955 22.7142 4.776165 31.926059 -1.035392
2010-07-13 05:42:59 51°13.666 2°55.955 22.7137 4.77627 31.926849 -1.000568
2010-07-13 05:43:04 51°13.666 2°55.955 22.7136 4.776165 31.92702 -1.000568
2010-07-13 05:43:09 51°13.666 2°55.955 22.714 4.776165 31.92702 -1.000568
2010-07-13 05:43:14 51°13.666 2°55.955 22.7136 4.776059 31.92671 -1.000568
2010-07-13 05:43:19 51°13.666 2°55.955 22.7147 4.776059 31.92671 -1.000568
2010-07-13 05:43:24 51°13.666 2°55.955 22.7148 4.775954 31.92592 -1.035392
2010-07-13 05:43:29 51°13.666 2°55.955 22.7116 4.775954 31.926401 -1.035392
2010-07-13 05:43:34 51°13.666 2°55.955 22.7119 4.775954 31.926401 -1.000568
2010-07-13 05:43:39 51°13.666 2°55.955 22.7122 4.775954 31.926881 -1.035392
2010-07-13 05:43:44 51°13.666 2°55.955 22.7123 4.775954 31.926881 -1.035392
2010-07-13 05:43:49 51°13.666 2°55.955 22.7113 4.775848 31.926571 -1.035392
2010-07-13 05:43:54 51°13.665 2°55.955 22.7111 4.775743 31.925781 -1.000568
2010-07-13 05:43:59 51°13.665 2°55.955 22.7107 4.775848 31.927052 -1.000568
2010-07-13 05:44:04 51°13.665 2°55.955 22.7103 4.775743 31.926742 -1.035392
2010-07-13 05:44:09 51°13.665 2°55.955 22.7103 4.775637 31.926432 -1.035392
2010-07-13 05:44:14 51°13.665 2°55.955 22.7118 4.775637 31.926913 -1.000568
2010-07-13 05:44:19 51°13.665 2°55.955 22.7131 4.775637 31.926913 -1.000568
2010-07-13 05:44:24 51°13.665 2°55.955 22.7132 4.775532 31.926123 -1.000568
2010-07-13 05:44:29 51°13.665 2°55.955 22.713 4.775532 31.926123 -1.000568
2010-07-13 05:44:34 51°13.665 2°55.955 22.7119 4.775532 31.926603 -1.035392
2010-07-13 05:44:39 51°13.665 2°55.955 22.7136 4.775426 31.926294 -1.035392
2010-07-13 05:44:44 51°13.665 2°55.955 22.7148 4.775426 31.926774 -1.035392
2010-07-13 05:44:49 51°13.665 2°55.955 22.7159 4.775426 31.926774 -1.035392
2010-07-13 05:44:54 51°13.665 2°55.955 22.7151 4.775426 31.926774 -1.035392
2010-07-13 05:44:59 51°13.665 2°55.955 22.7159 4.775426 31.927255 -1.035392
2010-07-13 05:45:04 51°13.665 2°55.955 22.7158 4.775426 31.927255 -1.000568
2010-07-13 05:45:09 51°13.665 2°55.955 22.7148 4.77532 31.926945 -1.000568
2010-07-13 05:45:14 51°13.665 2°55.955 22.715 4.77532 31.926945 -1.000568
2010-07-13 05:45:19 51°13.665 2°55.955 22.7136 4.775215 31.926155 -1.035392
2010-07-13 05:45:24 51°13.665 2°55.955 22.7139 4.775215 31.926635 -1.035392
2010-07-13 05:45:29 51°13.665 2°55.955 22.7135 4.775109 31.926326 -1.000568
2010-07-13 05:45:34 51°13.665 2°55.955 22.7139 4.775215 31.927116 -1.000568
2010-07-13 05:45:39 51°13.665 2°55.955 22.7136 4.775004 31.926016 -1.035392
2010-07-13 05:45:44 51°13.665 2°55.955 22.7148 4.775004 31.926016 -1.035392
2010-07-13 05:45:49 51°13.665 2°55.955 22.7155 4.775004 31.926496 -1.000568
2010-07-13 05:45:54 51°13.665 2°55.955 22.7143 4.775109 31.927767 -1.035392
2010-07-13 05:45:59 51°13.665 2°55.955 22.7127 4.775004 31.926977 -1.035392
2010-07-13 05:46:04 51°13.665 2°55.955 22.7134 4.775004 31.927458 -1.000568
2010-07-13 05:46:09 51°13.665 2°55.955 22.7144 4.774898 31.926667 -1.035392
2010-07-13 05:46:14 51°13.665 2°55.955 22.7149 4.774898 31.926667 -1.035392
2010-07-13 05:46:19 51°13.665 2°55.955 22.7145 4.774793 31.925877 -1.070216
2010-07-13 05:46:24 51°13.665 2°55.955 22.7156 4.774793 31.926358 -1.000568
2010-07-13 05:46:29 51°13.665 2°55.955 22.7169 4.774793 31.926838 -1.035392
2010-07-13 05:46:34 51°13.665 2°55.955 22.7178 4.774687 31.926529 -1.000568
2010-07-13 05:46:39 51°13.665 2°55.955 22.7187 4.774582 31.925738 -1.000568
2010-07-13 05:46:44 51°13.665 2°55.955 22.7189 4.774687 31.927009 -1.000568
2010-07-13 05:46:49 51°13.665 2°55.955 22.7177 4.774687 31.927009 -1.000568
2010-07-13 05:46:54 51°13.666 2°55.955 22.7175 4.774687 31.927009 -1.000568
2010-07-13 05:46:59 51°13.666 2°55.954 22.7162 4.774582 31.926699 -1.035392
2010-07-13 05:47:04 51°13.666 2°55.954 22.7165 4.774476 31.92639 -1.000568
2010-07-13 05:47:09 51°13.665 2°55.954 22.7158 4.774476 31.92639 -1.035392
2010-07-13 05:47:14 51°13.666 2°55.954 22.7151 4.774476 31.92687 -1.035392
2010-07-13 05:47:19 51°13.665 2°55.954 22.7169 4.774476 31.92687 -1.035392
2010-07-13 05:47:24 51°13.665 2°55.954 22.7164 4.77437 31.92608 -1.035392
2010-07-13 05:47:29 51°13.665 2°55.954 22.7173 4.77437 31.927041 -1.035392
2010-07-13 05:47:34 51°13.665 2°55.954 22.7169 4.774265 31.926251 -1.000568
2010-07-13 05:47:39 51°13.665 2°55.955 22.7159 4.774265 31.926732 -1.035392
2010-07-13 05:47:44 51°13.665 2°55.955 22.7153 4.774265 31.926732 -1.035392
2010-07-13 05:47:49 51°13.665 2°55.955 22.7157 4.774265 31.927212 -1.035392
2010-07-13 05:47:54 51°13.665 2°55.955 22.717 4.774265 31.927212 -1.035392
2010-07-13 05:47:59 51°13.665 2°55.955 22.7166 4.774054 31.925631 -1.035392
2010-07-13 05:48:04 51°13.665 2°55.955 22.7166 4.774054 31.926593 -1.035392
2010-07-13 05:48:09 51°13.665 2°55.955 22.7179 4.774159 31.927383 -1.000568
2010-07-13 05:48:14 51°13.665 2°55.955 22.7184 4.773948 31.926764 -1.035392
2010-07-13 05:48:19 51°13.665 2°55.955 22.7186 4.773948 31.926764 -1.035392
2010-07-13 05:48:24 51°13.665 2°55.955 22.7181 4.774054 31.927074 -1.035392
2010-07-13 05:48:29 51°13.665 2°55.955 22.7188 4.773843 31.925493 -1.035392
2010-07-13 05:48:34 51°13.665 2°55.955 22.7192 4.773843 31.926454 -1.035392
2010-07-13 05:48:39 51°13.665 2°55.955 22.7192 4.773948 31.927245 -1.000568
2010-07-13 05:48:44 51°13.665 2°55.955 22.7194 4.773948 31.927245 -1.000568
2010-07-13 05:48:49 51°13.665 2°55.955 22.7202 4.773843 31.926935 -1.000568
2010-07-13 05:48:54 51°13.665 2°55.955 22.7177 4.773843 31.927416 -1.000568
2010-07-13 05:48:59 51°13.665 2°55.955 22.7173 4.773737 31.926144 -1.000568
2010-07-13 05:49:04 51°13.665 2°55.955 22.7176 4.773737 31.926625 -1.000568
2010-07-13 05:49:09 51°13.665 2°55.955 22.7176 4.773737 31.927587 -1.035392
2010-07-13 05:49:14 51°13.665 2°55.955 22.7182 4.773632 31.926796 -1.035392
2010-07-13 05:49:19 51°13.665 2°55.954 22.7172 4.773632 31.926796 -1.035392
2010-07-13 05:49:24 51°13.665 2°55.954 22.7173 4.773632 31.926796 -1.000568
2010-07-13 05:49:29 51°13.665 2°55.955 22.7181 4.773632 31.927277 -1.000568
2010-07-13 05:49:34 51°13.665 2°55.955 22.719 4.773632 31.927758 -1.000568
2010-07-13 05:49:39 51°13.665 2°55.955 22.7198 4.773526 31.926967 -1.000568
2010-07-13 05:49:44 51°13.665 2°55.955 22.7194 4.77342 31.926177 -1.035392
2010-07-13 05:49:49 51°13.665 2°55.955 22.7188 4.77342 31.926177 -1.035392
2010-07-13 05:49:54 51°13.665 2°55.955 22.7182 4.773315 31.926348 -1.035392
2010-07-13 05:49:59 51°13.665 2°55.955 22.7188 4.77342 31.927138 -0.965744
2010-07-13 05:50:04 51°13.665 2°55.955 22.7196 4.773315 31.926829 -1.000568
2010-07-13 05:50:09 51°13.665 2°55.955 22.7193 4.773315 31.92731 -1.070216
2010-07-13 05:50:14 51°13.665 2°55.955 22.7191 4.773315 31.92731 -1.070216
2010-07-13 05:50:19 51°13.665 2°55.955 22.7189 4.77342 31.9281 -1.000568
2010-07-13 05:50:24 51°13.665 2°55.955 22.7202 4.773209 31.927 -1.035392
2010-07-13 05:50:29 51°13.665 2°55.955 22.7224 4.773104 31.926209 -1.035392
2010-07-13 05:50:34 51°13.665 2°55.955 22.7224 4.773104 31.92669 -1.000568
2010-07-13 05:50:39 51°13.665 2°55.955 22.7231 4.773104 31.927171 -1.035392
2010-07-13 05:50:44 51°13.665 2°55.955 22.7234 4.773104 31.927171 -1.035392
2010-07-13 05:50:49 51°13.665 2°55.955 22.7228 4.772998 31.926861 -1.035392
2010-07-13 05:50:54 51°13.665 2°55.955 22.7231 4.773104 31.927652 -1.035392
2010-07-13 05:50:59 51°13.665 2°55.955 22.7226 4.772998 31.927342 -1.000568
2010-07-13 05:51:04 51°13.664 2°55.955 22.7239 4.772893 31.926551 -1.035392
2010-07-13 05:51:09 51°13.664 2°55.955 22.7234 4.772893 31.926551 -1.035392
2010-07-13 05:51:14 51°13.664 2°55.955 22.7235 4.772893 31.927032 -1.035392
2010-07-13 05:51:19 51°13.664 2°55.955 22.7237 4.772893 31.927032 -1.035392
2010-07-13 05:51:24 51°13.664 2°55.955 22.7226 4.772787 31.927204 -1.000568
2010-07-13 05:51:29 51°13.664 2°55.955 22.7233 4.772893 31.927513 -1.035392
2010-07-13 05:51:34 51°13.664 2°55.955 22.7224 4.772681 31.926413 -1.035392
2010-07-13 05:51:39 51°13.664 2°55.955 22.723 4.772681 31.926894 -1.000568
2010-07-13 05:51:44 51°13.664 2°55.955 22.7233 4.772682 31.927375 -1.035392
2010-07-13 05:51:49 51°13.664 2°55.955 22.7229 4.772682 31.927375 -1.035392
2010-07-13 05:51:54 51°13.664 2°55.955 22.7237 4.772576 31.926584 -1.000568
2010-07-13 05:51:59 51°13.664 2°55.955 22.7231 4.772576 31.927065 -1.035392
2010-07-13 05:52:04 51°13.665 2°55.954 22.7234 4.772576 31.927065 -1.000568
2010-07-13 05:52:09 51°13.662 2°55.957 22.7239 4.77247 31.926755 -1.000568
2010-07-13 05:52:14 51°13.661 2°55.959 22.7235 4.77247 31.927236 -1.035392
2010-07-13 05:52:19 51°13.662 2°55.958 22.7225 4.77247 31.927236 -1.035392
2010-07-13 05:52:24 51°13.662 2°55.957 22.7232 4.772365 31.926445 -0.965744
2010-07-13 05:52:29 51°13.663 2°55.956 22.7245 4.772259 31.925655 -1.000568
2010-07-13 05:52:34 51°13.663 2°55.956 22.7245 4.772259 31.926136 -1.035392
2010-07-13 05:52:39 51°13.664 2°55.955 22.7237 4.772259 31.926617 -1.000568
2010-07-13 05:52:44 51°13.664 2°55.955 22.7245 4.772259 31.927098 -1.000568
2010-07-13 05:52:49 51°13.664 2°55.955 22.7251 4.772259 31.927098 -1.000568
2010-07-13 05:52:54 51°13.664 2°55.955 22.7261 4.772259 31.927579 -1.035392
2010-07-13 05:52:59 51°13.665 2°55.954 22.7261 4.772154 31.926788 -1.000568
2010-07-13 05:53:04 51°13.665 2°55.954 22.7271 4.772154 31.926788 -1.035392
2010-07-13 05:53:09 51°13.665 2°55.953 22.7251 4.772048 31.926478 -1.035392
2010-07-13 05:53:14 51°13.665 2°55.953 22.7245 4.772048 31.926478 -1.035392
2010-07-13 05:53:19 51°13.665 2°55.953 22.7241 4.772048 31.926959 -1.000568
2010-07-13 05:53:24 51°13.665 2°55.954 22.724 4.772048 31.926959 -1.000568
2010-07-13 05:53:29 51°13.665 2°55.953 22.7221 4.771943 31.926649 -1.035392
2010-07-13 05:53:34 51°13.665 2°55.953 22.7223 4.771943 31.926649 -1.000568
2010-07-13 05:53:39 51°13.665 2°55.954 22.7221 4.771837 31.926339 -1.035392
2010-07-13 05:53:44 51°13.665 2°55.954 22.7223 4.771837 31.926821 -1.035392
2010-07-13 05:53:49 51°13.665 2°55.954 22.7242 4.771837 31.926821 -1.035392
2010-07-13 05:53:54 51°13.665 2°55.954 22.7251 4.771731 31.926511 -1.000568
2010-07-13 05:53:59 51°13.665 2°55.954 22.7248 4.771837 31.927302 -1.035392
2010-07-13 05:54:04 51°13.665 2°55.954 22.7259 4.771731 31.926992 -1.000568
2010-07-13 05:54:09 51°13.665 2°55.954 22.7263 4.771731 31.927473 -1.000568
2010-07-13 05:54:14 51°13.665 2°55.954 22.7267 4.771626 31.926682 -0.965744
2010-07-13 05:54:19 51°13.665 2°55.954 22.7259 4.771626 31.926682 -0.965744
2010-07-13 05:54:24 51°13.665 2°55.954 22.7237 4.771626 31.927163 -1.000568
2010-07-13 05:54:29 51°13.665 2°55.954 22.7242 4.77152 31.926853 -1.000568
2010-07-13 05:54:34 51°13.665 2°55.954 22.7234 4.77152 31.926853 -1.000568
2010-07-13 05:54:39 51°13.665 2°55.954 22.7243 4.771415 31.926062 -1.035392
2010-07-13 05:54:44 51°13.665 2°55.954 22.7249 4.77152 31.927335 -1.000568
2010-07-13 05:54:49 51°13.665 2°55.955 22.7254 4.77152 31.927335 -1.000568
2010-07-13 05:54:54 51°13.665 2°55.955 22.7257 4.771415 31.927025 -1.000568
2010-07-13 05:54:59 51°13.664 2°55.955 22.7274 4.771415 31.927506 -1.035392
2010-07-13 05:55:04 51°13.664 2°55.956 22.7267 4.771415 31.927025 -1.035392
2010-07-13 05:55:09 51°13.664 2°55.956 22.7271 4.771309 31.926715 -1.000568
2010-07-13 05:55:14 51°13.664 2°55.956 22.7277 4.771309 31.926715 -1.000568
2010-07-13 05:55:19 51°13.667 2°55.952 22.7268 4.771204 31.926886 -1.000568
2010-07-13 05:55:26 51°13.671 2°55.946 22.7265 4.771098 31.926576 -1.000568
2010-07-13 05:55:31 51°13.665 2°55.954 22.7276 4.771098 31.926576 -1.000568
2010-07-13 05:55:36 51°13.663 2°55.957 22.728 4.771098 31.927058 -1.035392
2010-07-13 05:55:41 51°13.663 2°55.958 22.7268 4.770993 31.926267 -1.000568
2010-07-13 05:55:46 51°13.663 2°55.957 22.7275 4.771098 31.927539 -1.000568
2010-07-13 05:55:51 51°13.664 2°55.956 22.7264 4.771098 31.927539 -1.035392
2010-07-13 05:55:56 51°13.664 2°55.956 22.7269 4.770993 31.926748 -1.035392
2010-07-13 05:56:01 51°13.665 2°55.955 22.7273 4.770993 31.926748 -1.035392
2010-07-13 05:56:06 51°13.665 2°55.954 22.7275 4.770993 31.927229 -1.070216
2010-07-13 05:56:11 51°13.665 2°55.954 22.7268 4.770781 31.925647 -1.035392
2010-07-13 05:56:16 51°13.665 2°55.953 22.7278 4.770887 31.9274 -1.000568
2010-07-13 05:56:21 51°13.665 2°55.953 22.7285 4.770781 31.926609 -1.000568
2010-07-13 05:56:26 51°13.665 2°55.954 22.7276 4.770781 31.927091 -1.035392
2010-07-13 05:56:31 51°13.665 2°55.954 22.7286 4.770781 31.927091 -1.035392
2010-07-13 05:56:36 51°13.664 2°55.955 22.729 4.770676 31.9263 -1.035392
2010-07-13 05:56:41 51°13.663 2°55.956 22.73 4.770676 31.926781 -1.000568
2010-07-13 05:56:46 51°13.665 2°55.954 22.7292 4.770676 31.927262 -1.000568
2010-07-13 05:56:51 51°13.669 2°55.949 22.7297 4.77057 31.926471 -1.000568
2010-07-13 05:56:56 51°13.671 2°55.945 22.7299 4.77057 31.926471 -1.000568
2010-07-13 05:57:01 51°13.67 2°55.947 22.7295 4.770676 31.928225 -1.035392
2010-07-13 05:57:06 51°13.669 2°55.948 22.7314 4.77057 31.927433 -1.035392
2010-07-13 05:57:11 51°13.669 2°55.949 22.732 4.770465 31.926642 -1.000568
2010-07-13 05:57:16 51°13.669 2°55.949 22.732 4.77057 31.927915 -1.000568
2010-07-13 05:57:21 51°13.669 2°55.949 22.7297 4.770465 31.927124 -1.000568
2010-07-13 05:57:26 51°13.669 2°55.949 22.7296 4.770465 31.927124 -1.000568
2010-07-13 05:57:31 51°13.669 2°55.949 22.731 4.770359 31.926814 -1.035392
2010-07-13 05:57:36 51°13.669 2°55.948 22.7319 4.770359 31.927295 -1.000568
2010-07-13 05:57:41 51°13.669 2°55.949 22.7318 4.770359 31.927776 -1.000568
2010-07-13 05:57:46 51°13.669 2°55.949 22.7312 4.770254 31.926985 -1.035392
2010-07-13 05:57:51 51°13.669 2°55.949 22.7303 4.770254 31.926985 -0.965744
2010-07-13 05:57:56 51°13.668 2°55.95 22.7318 4.770254 31.927467 -1.070216
2010-07-13 05:58:01 51°13.669 2°55.95 22.7312 4.770254 31.927467 -1.070216
2010-07-13 05:58:06 51°13.668 2°55.95 22.73 4.770254 31.927948 -1.035392
2010-07-13 05:58:11 51°13.668 2°55.95 22.7305 4.770148 31.927157 -1.035392
2010-07-13 05:58:16 51°13.668 2°55.951 22.7307 4.770043 31.926847 -1.035392
2010-07-13 05:58:21 51°13.668 2°55.951 22.7326 4.769937 31.926056 -1.035392
2010-07-13 05:58:26 51°13.668 2°55.951 22.7325 4.770148 31.928601 -1.000568
2010-07-13 05:58:31 51°13.667 2°55.952 22.7336 4.770148 31.928601 -1.000568
2010-07-13 05:58:36 51°13.667 2°55.952 22.7342 4.769937 31.927018 -1.035392
2010-07-13 05:58:41 51°13.667 2°55.952 22.7346 4.769937 31.927018 -1.000568
2010-07-13 05:58:46 51°13.669 2°55.95 22.735 4.769831 31.926709 -1.000568
2010-07-13 05:58:51 51°13.672 2°55.946 22.7345 4.769831 31.927671 -1.000568
2010-07-13 05:58:56 51°13.673 2°55.944 22.7346 4.769831 31.927671 -1.000568
2010-07-13 05:59:01 51°13.674 2°55.943 22.7364 4.769937 31.927981 -1.000568
2010-07-13 05:59:06 51°13.675 2°55.943 22.7367 4.769726 31.92688 -1.000568
2010-07-13 05:59:11 51°13.675 2°55.942 22.738 4.769726 31.927362 -1.000568
2010-07-13 05:59:16 51°13.675 2°55.942 22.7391 4.769726 31.927362 -1.035392
2010-07-13 05:59:21 51°13.675 2°55.942 22.7384 4.76962 31.927533 -1.000568
2010-07-13 05:59:26 51°13.675 2°55.942 22.7385 4.76962 31.927052 -1.000568
2010-07-13 05:59:31 51°13.675 2°55.941 22.7379 4.76962 31.927052 -1.000568
2010-07-13 05:59:36 51°13.675 2°55.941 22.7324 4.76962 31.927533 -1.035392
2010-07-13 05:59:41 51°13.675 2°55.941 22.7291 4.76962 31.928015 -1.000568
2010-07-13 05:59:46 51°13.675 2°55.941 22.7286 4.769515 31.927705 -1.035392
2010-07-13 05:59:51 51°13.675 2°55.941 22.7286 4.769515 31.927705 -1.035392
2010-07-13 05:59:56 51°13.676 2°55.94 22.7303 4.769409 31.926913 -1.000568
2010-07-13 06:00:01 51°13.676 2°55.94 22.7308 4.769409 31.926913 -1.000568
2010-07-13 06:00:06 51°13.676 2°55.94 22.7306 4.769409 31.927876 -1.035392
2010-07-13 06:00:11 51°13.676 2°55.94 22.7326 4.769409 31.927876 -1.035392
2010-07-13 06:00:16 51°13.676 2°55.939 22.7353 4.769409 31.927876 -1.035392
2010-07-13 06:00:21 51°13.677 2°55.939 22.7362 4.769198 31.926775 -1.035392
2010-07-13 06:00:26 51°13.677 2°55.938 22.7384 4.769198 31.926775 -1.035392
2010-07-13 06:00:31 51°13.677 2°55.939 22.7379 4.769304 31.928048 -1.035392
2010-07-13 06:00:36 51°13.677 2°55.939 22.7373 4.769198 31.927257 -1.000568
2010-07-13 06:00:41 51°13.677 2°55.939 22.7363 4.769198 31.927738 -1.000568
2010-07-13 06:00:46 51°13.676 2°55.94 22.7361 4.769093 31.926947 -1.035392
2010-07-13 06:00:51 51°13.676 2°55.94 22.7369 4.769198 31.92822 -1.000568
2010-07-13 06:00:56 51°13.676 2°55.94 22.7355 4.769198 31.92822 -1.000568
2010-07-13 06:01:01 51°13.676 2°55.939 22.7363 4.769093 31.92791 -1.000568
2010-07-13 06:01:06 51°13.676 2°55.94 22.736 4.768881 31.926327 -1.035392
2010-07-13 06:01:11 51°13.676 2°55.939 22.7364 4.769093 31.928391 -1.035392
2010-07-13 06:01:16 51°13.677 2°55.939 22.7361 4.768987 31.928081 -1.000568
2010-07-13 06:01:21 51°13.677 2°55.939 22.7355 4.768881 31.92729 -1.035392
2010-07-13 06:01:26 51°13.677 2°55.938 22.7341 4.768881 31.927772 -1.035392
2010-07-13 06:01:31 51°13.677 2°55.938 22.7351 4.768881 31.927772 -1.035392
2010-07-13 06:01:36 51°13.677 2°55.938 22.7349 4.768776 31.92698 -1.000568
2010-07-13 06:01:41 51°13.677 2°55.938 22.7363 4.768881 31.927772 -1.000568
2010-07-13 06:01:46 51°13.677 2°55.938 22.7364 4.768776 31.92698 -1.000568
2010-07-13 06:01:51 51°13.677 2°55.939 22.7335 4.76867 31.927152 -1.035392
2010-07-13 06:01:56 51°13.677 2°55.939 22.733 4.76867 31.927152 -1.035392
2010-07-13 06:02:01 51°13.677 2°55.939 22.7339 4.76867 31.927152 -1.035392
2010-07-13 06:02:06 51°13.677 2°55.939 22.7345 4.76867 31.927152 -1.035392
2010-07-13 06:02:11 51°13.677 2°55.938 22.7339 4.768565 31.926842 -1.035392
2010-07-13 06:02:16 51°13.677 2°55.938 22.7317 4.768565 31.927805 -1.000568
2010-07-13 06:02:21 51°13.677 2°55.939 22.7308 4.768459 31.927014 -1.035392
2010-07-13 06:02:26 51°13.677 2°55.939 22.7316 4.768459 31.927014 -1.035392
2010-07-13 06:02:31 51°13.677 2°55.94 22.7321 4.768459 31.927014 -1.000568
2010-07-13 06:02:36 51°13.676 2°55.94 22.7325 4.768565 31.928287 -0.965744
2010-07-13 06:02:41 51°13.676 2°55.941 22.7337 4.768354 31.927185 -1.035392
2010-07-13 06:02:46 51°13.675 2°55.942 22.7337 4.768354 31.927185 -1.000568
2010-07-13 06:02:51 51°13.675 2°55.942 22.7348 4.768354 31.927667 -1.000568
2010-07-13 06:02:56 51°13.675 2°55.942 22.7337 4.768354 31.928149 -1.000568
2010-07-13 06:03:01 51°13.675 2°55.943 22.7345 4.768354 31.928149 -1.000568
2010-07-13 06:03:06 51°13.674 2°55.943 22.7358 4.768248 31.927357 -1.035392
2010-07-13 06:03:11 51°13.674 2°55.943 22.7342 4.768143 31.927047 -1.000568
2010-07-13 06:03:16 51°13.674 2°55.943 22.7348 4.768248 31.92832 -1.000568
2010-07-13 06:03:21 51°13.675 2°55.943 22.7353 4.768037 31.926737 -1.035392
2010-07-13 06:03:26 51°13.675 2°55.943 22.7356 4.768143 31.92801 -1.000568
2010-07-13 06:03:31 51°13.675 2°55.943 22.7355 4.768143 31.92801 -1.000568
2010-07-13 06:03:36 51°13.674 2°55.943 22.7364 4.767931 31.926427 -1.000568
2010-07-13 06:03:41 51°13.675 2°55.943 22.7377 4.768037 31.927219 -1.035392
2010-07-13 06:03:46 51°13.674 2°55.943 22.7375 4.768037 31.927701 -1.000568
2010-07-13 06:03:51 51°13.674 2°55.943 22.7388 4.768037 31.928182 -1.000568
2010-07-13 06:03:56 51°13.675 2°55.943 22.7395 4.768037 31.928182 -1.000568
2010-07-13 06:04:01 51°13.674 2°55.943 22.7407 4.767826 31.927081 -1.035392
2010-07-13 06:04:06 51°13.674 2°55.944 22.7386 4.767826 31.927562 -1.035392
2010-07-13 06:04:11 51°13.673 2°55.944 22.7384 4.76772 31.926771 -1.000568
2010-07-13 06:04:16 51°13.673 2°55.945 22.7393 4.767826 31.927562 -1.000568
2010-07-13 06:04:21 51°13.673 2°55.945 22.7393 4.76772 31.927253 -1.035392
2010-07-13 06:04:26 51°13.673 2°55.945 22.7399 4.76772 31.927253 -1.035392
2010-07-13 06:04:31 51°13.673 2°55.944 22.7415 4.76772 31.927253 -1.000568
2010-07-13 06:04:36 51°13.673 2°55.944 22.7417 4.76772 31.928216 -1.035392
2010-07-13 06:04:41 51°13.673 2°55.944 22.7425 4.76772 31.928216 -1.035392
2010-07-13 06:04:46 51°13.674 2°55.944 22.7426 4.767615 31.927424 -1.000568
2010-07-13 06:04:51 51°13.674 2°55.944 22.7424 4.767615 31.928388 -1.035392
2010-07-13 06:04:56 51°13.674 2°55.943 22.7417 4.767509 31.928078 -1.000568
2010-07-13 06:05:01 51°13.674 2°55.943 22.7424 4.767509 31.928078 -1.000568
2010-07-13 06:05:06 51°13.674 2°55.943 22.7419 4.767404 31.927286 -1.000568
2010-07-13 06:05:11 51°13.674 2°55.943 22.7415 4.767404 31.927768 -1.035392
2010-07-13 06:05:16 51°13.674 2°55.942 22.7409 4.767404 31.927286 -1.000568
2010-07-13 06:05:21 51°13.674 2°55.943 22.7413 4.767298 31.927458 -1.000568
2010-07-13 06:05:26 51°13.674 2°55.943 22.7412 4.767193 31.926667 -1.035392
2010-07-13 06:05:31 51°13.674 2°55.943 22.7407 4.767193 31.926667 -1.035392
2010-07-13 06:05:36 51°13.674 2°55.943 22.7408 4.767298 31.92794 -1.035392
2010-07-13 06:05:41 51°13.674 2°55.943 22.7404 4.767298 31.92794 -1.035392
2010-07-13 06:05:46 51°13.674 2°55.944 22.7406 4.767193 31.92763 -1.000568
2010-07-13 06:05:51 51°13.673 2°55.944 22.74 4.767193 31.928112 -1.035392
2010-07-13 06:05:56 51°13.673 2°55.944 22.7412 4.767193 31.928112 -1.035392
2010-07-13 06:06:01 51°13.673 2°55.944 22.741 4.767087 31.92732 -1.000568
2010-07-13 06:06:06 51°13.673 2°55.945 22.7402 4.767087 31.927802 -1.000568
2010-07-13 06:06:11 51°13.673 2°55.945 22.7397 4.766981 31.92701 -1.035392
2010-07-13 06:06:16 51°13.672 2°55.945 22.7387 4.766981 31.927492 -1.035392
2010-07-13 06:06:21 51°13.672 2°55.946 22.7396 4.766981 31.927974 -1.000568
2010-07-13 06:06:26 51°13.672 2°55.946 22.7402 4.766981 31.928456 -1.000568
2010-07-13 06:06:31 51°13.672 2°55.946 22.7411 4.766981 31.928456 -1.000568
2010-07-13 06:06:36 51°13.672 2°55.946 22.7412 4.766876 31.927664 -1.000568
2010-07-13 06:06:41 51°13.672 2°55.946 22.7398 4.76677 31.927836 -1.035392
2010-07-13 06:06:46 51°13.672 2°55.947 22.7405 4.76677 31.927354 -1.000568
2010-07-13 06:06:51 51°13.672 2°55.947 22.7419 4.76677 31.927836 -1.035392
2010-07-13 06:06:56 51°13.672 2°55.947 22.7415 4.76677 31.928318 -1.000568
2010-07-13 06:07:01 51°13.672 2°55.947 22.7399 4.76677 31.928318 -1.000568
2010-07-13 06:07:06 51°13.672 2°55.946 22.7404 4.766665 31.927044 -1.000568
2010-07-13 06:07:11 51°13.673 2°55.946 22.7402 4.766665 31.928008 -1.035392
2010-07-13 06:07:16 51°13.673 2°55.945 22.7414 4.766559 31.927216 -1.035392
2010-07-13 06:07:21 51°13.673 2°55.945 22.7414 4.766559 31.927698 -1.000568
2010-07-13 06:07:26 51°13.674 2°55.945 22.7407 4.766559 31.927698 -1.000568
2010-07-13 06:07:31 51°13.673 2°55.945 22.7415 4.766454 31.926906 -1.035392
2010-07-13 06:07:36 51°13.673 2°55.945 22.7414 4.766454 31.927388 -1.035392